LOCAL CLIMATOLOGICAL DATA: This Month's Data
[updated each morning between 7AM and 9AM]
Station: Portsmouth, Virginia - KPWR Latitude: 36° 48' 04" N Longitude: 76° 19' 37" W Elevation (ground): 13 ft. Time Zone: Eastern

BE SURE TO RELOAD/REFRESH THIS SCREEN FOR DAILY UPDATES BY RIGHT-CLICKING THE BACKGROUND The data in this frame and listed below are final adjusted site data for the time period.


-----------------------------------------------------------------------------------------------------------------------------------------------------------------------------------
SUNDAY			Temp	Hi	Low	Out	Dew	Wind	Wind	Wind	Hi	Hi	Wind	Heat	THW			Rain	Heat	Cool	In 	In	In 	In 	Wind	Wind	ISS 	Arc.
Date		Time	Out	Temp	Temp	Hum	Pt.	Speed	Dir	Run	Speed	Dir	Chill	Index	Index	Bar  	Rain	Rate	D-D 	D-D 	Temp	Hum	Dew	Heat	Samp	Tx 	Recept	Int.
09/01/19	1:00 a	72.4	73.4	72.4	84	67.3	0.0	SE	0.00	4.0	SE	72.4	74.2	74.2	30.196	0.00	0.00	0.000	0.308	82.8	33	50.8	81.3	1403	1	100.0	60
09/01/19	2:00 a	71.1	72.4	71.0	87	67.0	0.0	SE	0.00	5.0	SE	71.1	73.1	73.1	30.191	0.00	0.00	0.000	0.254	82.7	34	51.5	81.3	1405	1	100.0	60
09/01/19	3:00 a	69.9	71.0	69.9	90	66.8	0.0	SE	0.00	5.0	SE	69.9	71.9	71.9	30.178	0.00	0.00	0.000	0.204	82.6	35	52.2	81.4	1405	1	100.0	60
09/01/19	4:00 a	69.0	69.9	69.0	92	66.6	0.0	SE	0.00	5.0	SE	69.0	71.1	71.1	30.174	0.00	0.00	0.000	0.167	82.3	35	51.9	81.0	1405	1	100.0	60
09/01/19	5:00 a	69.2	69.2	68.8	96	68.0	0.0	SE	0.00	7.0	ENE	69.2	71.7	71.7	30.182	0.00	0.00	0.000	0.175	81.9	36	52.3	80.7	1405	1	100.0	60
09/01/19	6:00 a	72.4	72.4	69.2	99	72.1	5.0	NNE	5.00	14.0	NNE	72.4	75.8	75.8	30.180	0.00	0.00	0.000	0.308	81.7	37	52.9	80.6	1405	1	100.0	60
09/01/19	7:00 a	72.9	72.9	72.4	98	72.3	5.0	NE	5.00	13.0	ENE	72.9	76.2	76.2	30.195	0.00	0.00	0.000	0.329	82.2	37	53.3	81.2	1405	1	100.0	60
09/01/19	8:00 a	74.8	74.8	72.9	94	73.0	6.0	ENE	6.00	16.0	ENE	74.8	78.3	78.3	30.204	0.00	0.00	0.000	0.408	82.6	37	53.7	81.7	1405	1	100.0	60
09/01/19	9:00 a	77.0	77.0	74.8	86	72.5	7.0	ENE	7.00	18.0	ENE	77.0	80.7	80.7	30.202	0.00	0.00	0.000	0.500	80.6	35	50.4	79.1	1405	1	100.0	60
09/01/19	10:00 a	79.6	79.6	77.0	75	71.0	10.0	NE	10.00	21.0	ENE	78.0	83.0	81.4	30.209	0.00	0.00	0.000	0.608	83.4	36	53.6	82.6	1405	1	100.0	60
09/01/19	11:00 a	81.9	81.9	79.6	65	69.0	7.0	ENE	7.00	19.0	ENE	81.9	85.0	85.0	30.209	0.00	0.00	0.000	0.704	84.2	35	53.6	83.5	1405	1	100.0	60
09/01/19	12:00 p	83.8	83.8	81.9	61	68.9	7.0	ENE	7.00	20.0	NNE	83.8	87.6	87.6	30.206	0.00	0.00	0.000	0.783	87.2	36	57.0	86.6	1405	1	100.0	60
09/01/19	1:00 p	84.3	84.3	83.8	60	68.9	7.0	ENE	7.00	18.0	NE	84.3	88.2	88.2	30.202	0.00	0.00	0.000	0.804	86.7	36	56.6	86.2	1404	1	100.0	60
09/01/19	2:00 p	84.9	85.1	84.3	62	70.4	6.0	ENE	6.00	18.0	ENE	84.9	89.9	89.9	30.191	0.00	0.00	0.000	0.829	89.5	37	59.8	89.7	1405	1	100.0	60
09/01/19	3:00 p	85.1	85.1	84.8	67	72.9	6.0	ENE	6.00	15.0	NNE	85.1	92.1	92.1	30.175	0.00	0.00	0.000	0.837	88.3	35	57.2	87.3	1405	1	100.0	60
09/01/19	4:00 p	84.5	85.2	84.5	68	72.8	6.0	ENE	6.00	16.0	NE	84.5	91.2	91.2	30.164	0.00	0.00	0.000	0.813	90.4	35	59.0	90.4	1405	1	100.0	60
09/01/19	5:00 p	83.6	84.5	83.6	71	73.2	6.0	ENE	6.00	20.0	NE	83.6	90.3	90.3	30.163	0.00	0.00	0.000	0.775	88.8	34	56.8	87.7	1405	1	100.0	60
09/01/19	6:00 p	82.6	83.6	82.6	75	73.9	6.0	ENE	6.00	18.0	NE	82.6	89.1	89.1	30.157	0.00	0.00	0.000	0.733	90.4	34	58.2	90.2	1406	1	100.0	60
09/01/19	7:00 p	80.9	82.6	80.9	79	73.8	6.0	ENE	6.00	16.0	NE	80.9	86.1	86.1	30.155	0.00	0.00	0.000	0.663	88.3	34	56.4	87.0	1404	1	100.0	60
09/01/19	8:00 p	79.5	80.9	79.5	84	74.2	5.0	ENE	5.00	16.0	ENE	79.5	84.4	84.4	30.149	0.00	0.00	0.000	0.604	86.2	33	53.7	85.1	1405	1	100.0	60
09/01/19	9:00 p	78.0	79.5	78.0	88	74.2	5.0	ENE	5.00	14.0	ENE	78.0	82.5	82.5	30.143	0.00	0.00	0.000	0.542	87.0	33	54.4	85.8	1405	1	100.0	60
09/01/19	10:00 p	77.3	78.0	77.3	91	74.5	5.0	ENE	5.00	14.0	NE	77.3	81.6	81.6	30.137	0.00	0.00	0.000	0.513	85.2	34	53.7	84.2	1405	1	100.0	60
09/01/19	11:00 p	76.8	77.3	76.8	93	74.6	4.0	ENE	4.00	12.0	E	76.8	81.0	81.0	30.131	0.00	0.00	0.000	0.492	85.9	34	54.3	85.0	1405	1	100.0	60
09/02/19	12:00 a	76.0	76.8	76.0	94	74.1	4.0	NE	4.00	6.0	NE	76.0	79.9	79.9	30.131	0.00	0.00	0.000	0.458	83.9	34	52.5	83.0	1405	1	100.0	60
MONDAY			Temp	Hi	Low	Out	Dew	Wind	Wind	Wind	Hi	Hi	Wind	Heat	THW			Rain	Heat	Cool	In 	In	In 	In 	Wind	Wind	ISS 	Arc.
Date		Time	Out	Temp	Temp	Hum	Pt.	Speed	Dir	Run	Speed	Dir	Chill	Index	Index	Bar  	Rain	Rate	D-D 	D-D 	Temp	Hum	Dew	Heat	Samp	Tx 	Recept	Int.
09/02/19	1:00 a	75.2	76.0	75.2	94	73.4	0.0	SSE	0.00	10.0	SSE	75.2	78.9	78.9	30.117	0.00	0.00	0.000	0.425	84.4	34	53.0	83.5	1404	1	100.0	60
09/02/19	2:00 a	74.9	75.2	74.9	96	73.7	0.0	SSE	0.00	6.0	SSE	74.9	78.6	78.6	30.107	0.00	0.00	0.000	0.413	84.3	35	53.7	83.6	1404	1	100.0	60
09/02/19	3:00 a	74.7	74.9	74.7	97	73.8	0.0	SSE	0.00	5.0	SSE	74.7	78.3	78.3	30.082	0.00	0.00	0.000	0.404	84.2	36	54.4	83.7	1405	1	100.0	60
09/02/19	4:00 a	74.5	74.7	74.5	97	73.6	0.0	SSE	0.00	5.0	SSE	74.5	78.0	78.0	30.062	0.00	0.00	0.000	0.396	84.1	36	54.3	83.6	1406	1	100.0	60
09/02/19	5:00 a	74.3	74.5	74.3	97	73.4	0.0	ENE	0.00	5.0	E	74.3	77.7	77.7	30.060	0.00	0.00	0.000	0.388	82.2	36	52.6	81.1	1404	1	100.0	60
09/02/19	6:00 a	74.3	74.3	74.2	98	73.7	0.0	ENE	0.00	6.0	ENE	74.3	77.8	77.8	30.077	0.00	0.00	0.000	0.388	82.9	36	53.2	81.9	1405	1	100.0	60
09/02/19	7:00 a	74.5	74.5	74.3	98	73.9	0.0	ENE	0.00	5.0	ENE	74.5	78.1	78.1	30.075	0.00	0.00	0.000	0.396	83.2	36	53.5	82.3	1405	1	100.0	60
09/02/19	8:00 a	75.2	75.2	74.5	99	74.9	0.0	ENE	0.00	5.0	ENE	75.2	79.1	79.1	30.075	0.00	0.00	0.000	0.425	83.4	36	53.6	82.6	1405	1	100.0	60
09/02/19	9:00 a	76.8	76.8	75.2	98	76.2	4.0	ENE	4.00	6.0	ENE	76.8	81.6	81.6	30.073	0.00	0.00	0.000	0.492	81.4	36	51.9	80.1	1405	1	100.0	60
09/02/19	10:00 a	78.8	78.8	76.8	90	75.6	4.0	E	4.00	6.0	E	78.8	84.3	84.3	30.073	0.00	0.00	0.000	0.575	83.1	37	54.1	82.3	1405	1	100.0	60
09/02/19	11:00 a	81.7	81.7	78.8	83	76.0	4.0	E	4.00	12.0	SE	81.7	89.0	89.0	30.068	0.00	0.00	0.000	0.696	84.1	35	53.5	83.4	1405	1	100.0	60
09/02/19	12:00 p	84.9	84.9	81.7	72	74.9	5.0	S	5.00	14.0	SSE	84.9	93.4	93.4	30.048	0.00	0.00	0.000	0.829	85.8	37	56.5	85.4	1405	1	100.0	60
09/02/19	1:00 p	87.1	87.1	85.0	64	73.4	6.0	SSE	6.00	16.0	S	87.1	95.3	95.3	30.033	0.00	0.00	0.000	0.921	86.4	35	55.5	85.7	1405	1	100.0	60
09/02/19	2:00 p	87.7	87.7	87.1	63	73.5	6.0	SSE	6.00	15.0	SSE	87.7	95.7	95.7	30.011	0.00	0.00	0.000	0.946	88.8	37	59.2	88.6	1405	1	100.0	60
09/02/19	3:00 p	88.9	89.0	87.7	59	72.7	5.0	S	5.00	13.0	SSE	88.9	96.7	96.7	29.980	0.00	0.00	0.000	0.996	89.2	34	57.2	88.4	1405	1	100.0	60
09/02/19	4:00 p	88.8	89.1	88.7	60	73.1	6.0	SSE	6.00	15.0	ESE	88.8	96.8	96.8	29.970	0.00	0.00	0.000	0.992	90.5	36	59.9	90.8	1404	1	100.0	60
09/02/19	5:00 p	88.5	88.8	88.2	61	73.3	5.0	S	5.00	11.0	S	88.5	96.5	96.5	29.953	0.00	0.00	0.000	0.979	90.2	33	57.2	89.8	1405	1	100.0	60
09/02/19	6:00 p	89.2	89.2	88.5	65	75.9	5.0	SW	5.00	16.0	SSE	89.2	100.2	100.2	29.942	0.00	0.00	0.000	1.008	91.3	34	59.0	91.4	1405	1	100.0	60
09/02/19	7:00 p	87.1	89.2	87.1	69	75.7	10.0	SSE	10.00	21.0	SSE	86.5	97.3	96.7	29.950	0.00	0.00	0.000	0.921	89.4	33	56.5	88.5	1405	1	100.0	60
09/02/19	8:00 p	83.7	87.1	83.7	75	74.9	6.0	SSE	6.00	15.0	SSE	83.7	91.9	91.9	29.972	0.00	0.00	0.000	0.779	89.7	34	57.6	89.2	1405	1	100.0	60
09/02/19	9:00 p	80.7	83.7	80.7	80	74.0	5.0	SSE	5.00	14.0	SSE	80.7	85.9	85.9	29.963	0.00	0.00	0.000	0.654	86.8	33	54.2	85.6	1405	1	100.0	60
09/02/19	10:00 p	78.4	80.7	78.4	83	72.8	5.0	SSE	5.00	12.0	S	78.4	82.4	82.4	29.974	0.00	0.00	0.000	0.558	87.8	34	55.9	86.5	1405	1	100.0	60
09/02/19	11:00 p	76.6	78.4	76.6	86	72.1	4.0	SE	4.00	10.0	S	76.6	80.1	80.1	29.984	0.00	0.00	0.000	0.483	85.4	33	53.0	84.2	1405	1	100.0	60
TUESDAY			Temp	Hi	Low	Out	Dew	Wind	Wind	Wind	Hi	Hi	Wind	Heat	THW			Rain	Heat	Cool	In 	In	In 	In 	Wind	Wind	ISS 	Arc.
Date		Time	Out	Temp	Temp	Hum	Pt.	Speed	Dir	Run	Speed	Dir	Chill	Index	Index	Bar  	Rain	Rate	D-D 	D-D 	Temp	Hum	Dew	Heat	Samp	Tx 	Recept	Int.
09/03/19	1:00 a	74.1	75.1	74.1	92	71.6	4.0	S	4.00	7.0	SSW	74.1	76.8	76.8	29.983	0.00	0.00	0.000	0.379	83.9	33	51.7	82.8	1404	1	100.0	60
09/03/19	2:00 a	73.1	74.1	73.1	94	71.3	4.0	SW	4.00	10.0	SW	73.1	75.9	75.9	29.970	0.00	0.00	0.000	0.337	84.5	35	53.8	83.8	1405	1	100.0	60
09/03/19	3:00 a	72.2	73.1	72.2	95	70.7	4.0	SW	4.00	6.0	SW	72.2	75.0	75.0	29.962	0.00	0.00	0.000	0.300	84.4	35	53.8	83.7	1405	1	100.0	60
09/03/19	4:00 a	71.4	72.2	71.4	96	70.2	0.0	SW	0.00	5.0	SW	71.4	74.3	74.3	29.959	0.00	0.00	0.000	0.267	82.2	34	51.0	80.8	1405	1	100.0	60
09/03/19	5:00 a	70.9	71.5	70.9	96	69.7	0.0	SW	0.00	5.0	SW	70.9	73.8	73.8	29.966	0.00	0.00	0.000	0.246	82.9	35	52.4	81.7	1404	1	100.0	60
09/03/19	6:00 a	70.4	70.9	70.4	97	69.5	0.0	SW	0.00	5.0	SW	70.4	73.4	73.4	29.975	0.00	0.00	0.000	0.225	83.1	36	53.4	82.1	1405	1	100.0	60
09/03/19	7:00 a	70.3	70.4	70.2	97	69.4	0.0	---	0.00	0.0	---	70.3	73.3	73.3	29.988	0.00	0.00	0.000	0.221	83.1	36	53.4	82.1	1405	1	100.0	60
09/03/19	8:00 a	71.3	71.3	70.2	99	71.0	0.0	NW	0.00	5.0	NW	71.3	74.8	74.8	30.004	0.00	0.00	0.000	0.263	81.2	35	50.9	79.7	1405	1	100.0	60
09/03/19	9:00 a	74.2	74.2	71.3	100	74.2	4.0	WNW	4.00	7.0	SW	74.2	77.8	77.8	30.005	0.00	0.00	0.000	0.383	82.9	35	52.4	81.7	1405	1	100.0	60
09/03/19	10:00 a	77.4	77.4	74.2	93	75.2	4.0	WSW	4.00	7.0	W	77.4	82.0	82.0	30.008	0.00	0.00	0.000	0.517	84.2	36	54.4	83.7	1405	1	100.0	60
09/03/19	11:00 a	81.5	81.5	77.4	84	76.2	5.0	NNW	5.00	10.0	NW	81.5	88.8	88.8	30.007	0.00	0.00	0.000	0.688	85.7	38	57.2	85.5	1405	1	100.0	60
09/03/19	12:00 p	84.6	84.6	81.5	75	75.8	5.0	NE	5.00	13.0	WNW	84.6	93.8	93.8	29.997	0.00	0.00	0.000	0.817	87.4	35	56.4	86.4	1405	1	100.0	60
09/03/19	1:00 p	86.1	86.1	84.6	73	76.4	6.0	NNW	6.00	14.0	WNW	86.1	96.6	96.6	29.980	0.00	0.00	0.000	0.879	88.9	39	60.7	89.5	1405	1	100.0	60
09/03/19	2:00 p	85.2	86.6	85.2	78	77.6	10.0	ENE	10.00	20.0	E	84.3	96.2	95.3	29.988	0.00	0.00	0.000	0.842	89.7	34	57.6	89.2	1405	1	100.0	60
09/03/19	3:00 p	84.0	85.2	83.9	77	76.0	11.0	NE	11.00	20.0	E	82.7	93.4	92.1	29.981	0.00	0.00	0.000	0.792	90.9	38	61.8	92.1	1405	1	100.0	60
09/03/19	4:00 p	84.1	84.3	83.9	76	75.7	10.0	ENE	10.00	18.0	NE	83.0	93.2	92.1	29.982	0.00	0.00	0.000	0.796	91.2	32	57.2	90.9	1405	1	100.0	60
09/03/19	5:00 p	83.8	84.1	83.8	79	76.6	7.0	ENE	7.00	18.0	ENE	83.8	93.6	93.6	29.979	0.00	0.00	0.000	0.783	91.6	37	61.6	92.8	1405	1	100.0	60
09/03/19	6:00 p	81.5	83.8	81.5	82	75.5	7.0	ENE	7.00	18.0	ENE	81.5	88.3	88.3	29.985	0.00	0.00	0.000	0.688	88.4	35	57.3	87.4	1405	1	100.0	60
09/03/19	7:00 p	81.3	81.5	81.3	83	75.6	5.0	SE	5.00	15.0	SSE	81.3	88.0	88.0	29.994	0.00	0.00	0.000	0.679	88.7	36	58.3	88.2	1405	1	100.0	60
09/03/19	8:00 p	79.7	81.3	79.7	84	74.4	4.0	ENE	4.00	11.0	ESE	79.7	84.8	84.8	29.995	0.00	0.00	0.000	0.612	87.0	34	55.2	86.0	1404	1	100.0	60
09/03/19	9:00 p	78.2	79.7	78.2	88	74.4	5.0	SSE	5.00	10.0	SSE	78.2	82.9	82.9	30.000	0.00	0.00	0.000	0.550	86.8	35	55.9	86.0	1405	1	100.0	60
09/03/19	10:00 p	76.9	78.2	76.9	91	74.1	5.0	SSE	5.00	7.0	SSE	76.9	81.0	81.0	30.013	0.00	0.00	0.000	0.496	86.5	35	55.6	85.8	1405	1	100.0	60
09/03/19	11:00 p	76.1	76.9	76.1	93	73.9	4.0	SE	4.00	6.0	SSE	76.1	79.9	79.9	29.998	0.00	0.00	0.000	0.462	84.8	35	54.1	84.0	1405	1	100.0	60
09/04/19	12:00 a	75.1	76.1	75.1	95	73.6	5.0	SE	5.00	6.0	SE	75.1	78.8	78.8	29.984	0.00	0.00	0.000	0.421	85.3	36	55.3	84.7	1405	1	100.0	60
WEDNESDAY		Temp	Hi	Low	Out	Dew	Wind	Wind	Wind	Hi	Hi	Wind	Heat	THW			Rain	Heat	Cool	In 	In	In 	In 	Wind	Wind	ISS 	Arc.
Date		Time	Out	Temp	Temp	Hum	Pt.	Speed	Dir	Run	Speed	Dir	Chill	Index	Index	Bar  	Rain	Rate	D-D 	D-D 	Temp	Hum	Dew	Heat	Samp	Tx 	Recept	Int.
09/04/19	1:00 a	74.4	75.1	74.4	96	73.2	0.0	SE	0.00	5.0	SE	74.4	77.8	77.8	29.991	0.00	0.00	0.000	0.392	82.9	34	51.6	81.5	1404	1	100.0	60
09/04/19	2:00 a	73.4	74.4	73.4	96	72.2	0.0	E	0.00	5.0	E	73.4	76.4	76.4	29.984	0.00	0.00	0.000	0.350	83.7	36	53.9	83.0	1405	1	100.0	60
09/04/19	3:00 a	72.6	73.4	72.6	97	71.7	0.0	E	0.00	5.0	E	72.6	75.7	75.7	29.976	0.00	0.00	0.000	0.317	83.7	36	53.9	83.0	1405	1	100.0	60
09/04/19	4:00 a	72.2	72.6	72.2	97	71.3	0.0	E	0.00	5.0	E	72.2	75.3	75.3	29.982	0.00	0.00	0.000	0.300	83.4	37	54.4	82.8	1405	1	100.0	60
09/04/19	5:00 a	71.5	72.2	71.5	98	70.9	0.0	E	0.00	4.0	E	71.5	74.8	74.8	29.993	0.00	0.00	0.000	0.271	81.8	36	52.2	80.6	1405	1	100.0	60
09/04/19	6:00 a	71.1	71.5	71.1	98	70.5	0.0	E	0.00	5.0	E	71.1	74.4	74.4	30.000	0.00	0.00	0.000	0.254	82.5	36	52.9	81.4	1405	1	100.0	60
09/04/19	7:00 a	70.8	71.2	70.8	98	70.2	0.0	---	0.00	0.0	---	70.8	74.1	74.1	30.024	0.00	0.00	0.000	0.242	82.6	36	52.9	81.5	1405	1	100.0	60
09/04/19	8:00 a	71.1	71.1	70.6	99	70.8	0.0	E	0.00	4.0	E	71.1	74.6	74.6	30.025	0.00	0.00	0.000	0.254	82.3	36	52.7	81.2	1404	1	100.0	60
09/04/19	9:00 a	75.1	75.1	71.1	100	75.1	4.0	SSW	4.00	10.0	SSE	75.1	79.0	79.0	30.031	0.00	0.00	0.000	0.421	82.1	36	52.5	80.9	1405	1	100.0	60
09/04/19	10:00 a	78.6	78.6	75.2	99	78.3	4.0	SSW	4.00	12.0	SW	78.6	85.6	85.6	30.026	0.00	0.00	0.000	0.567	83.6	38	55.3	83.3	1405	1	100.0	60
09/04/19	11:00 a	83.0	83.0	78.6	87	78.7	6.0	S	6.00	17.0	SSE	83.0	93.8	93.8	30.013	0.00	0.00	0.000	0.750	83.5	37	54.5	82.9	1405	1	100.0	60
09/04/19	12:00 p	86.4	86.4	83.1	79	79.1	6.0	S	6.00	14.0	S	86.4	99.7	99.7	29.986	0.00	0.00	0.000	0.892	86.4	37	57.0	86.1	1405	1	100.0	60
09/04/19	1:00 p	88.3	88.3	86.4	73	78.5	5.0	SW	5.00	14.0	SW	88.3	101.6	101.6	29.965	0.00	0.00	0.000	0.971	86.8	38	58.1	86.7	1405	1	100.0	60
09/04/19	2:00 p	89.4	89.4	88.3	67	77.0	6.0	SW	6.00	16.0	SW	89.4	102.0	102.0	29.957	0.00	0.00	0.000	1.017	89.0	34	57.0	88.0	1405	1	100.0	60
09/04/19	3:00 p	89.4	89.4	89.4	66	76.5	6.0	SW	6.00	16.0	SW	89.4	101.4	101.4	29.952	0.00	0.00	0.000	1.017	88.7	37	59.1	88.5	1405	1	100.0	60
09/04/19	4:00 p	89.4	89.4	89.4	67	77.0	5.0	SW	5.00	15.0	WSW	89.4	102.0	102.0	29.946	0.00	0.00	0.000	1.017	90.2	33	57.2	89.8	1405	1	100.0	60
09/04/19	5:00 p	89.4	89.4	89.4	69	77.9	5.0	SW	5.00	16.0	SSE	89.4	103.1	103.1	29.938	0.00	0.00	0.000	1.017	89.6	37	59.9	89.8	1405	1	100.0	60
09/04/19	6:00 p	88.9	89.4	88.9	70	77.8	5.0	SSW	5.00	15.0	S	88.9	102.0	102.0	29.933	0.00	0.00	0.000	0.996	90.7	32	56.8	90.2	1405	1	100.0	60
09/04/19	7:00 p	87.6	88.9	87.6	75	78.7	5.0	S	5.00	14.0	SSE	87.6	100.7	100.7	29.930	0.00	0.00	0.000	0.942	88.4	36	58.1	87.7	1405	1	100.0	60
09/04/19	8:00 p	85.3	87.6	85.3	80	78.4	4.0	SSE	4.00	11.0	SSE	85.3	97.1	97.1	29.937	0.00	0.00	0.000	0.846	88.9	36	58.5	88.5	1405	1	100.0	60
09/04/19	9:00 p	83.0	85.3	83.0	84	77.7	4.0	SSW	4.00	7.0	SSE	83.0	92.8	92.8	29.948	0.00	0.00	0.000	0.750	86.8	36	56.6	86.2	1405	1	100.0	60
09/04/19	10:00 p	81.3	83.0	81.3	87	77.1	4.0	SSW	4.00	11.0	SSE	81.3	89.2	89.2	29.946	0.00	0.00	0.000	0.679	87.2	36	57.0	86.6	1405	1	100.0	60
09/04/19	11:00 p	80.1	81.3	80.1	89	76.6	4.0	SSW	4.00	11.0	SSE	80.1	86.8	86.8	29.947	0.00	0.00	0.000	0.629	85.2	36	55.2	84.6	1404	1	100.0	60
09/05/19	12:00 a	79.0	80.1	79.0	91	76.1	4.0	S	4.00	12.0	SSE	79.0	84.9	84.9	29.939	0.00	0.00	0.000	0.583	86.2	37	56.9	85.9	1405	1	100.0	60
THURSDAY		Temp	Hi	Low	Out	Dew	Wind	Wind	Wind	Hi	Hi	Wind	Heat	THW			Rain	Heat	Cool	In 	In	In 	In 	Wind	Wind	ISS 	Arc.
Date		Time	Out	Temp	Temp	Hum	Pt.	Speed	Dir	Run	Speed	Dir	Chill	Index	Index	Bar  	Rain	Rate	D-D 	D-D 	Temp	Hum	Dew	Heat	Samp	Tx 	Recept	Int.
09/05/19	1:00 a	78.0	79.0	78.0	92	75.5	4.0	SSE	4.00	11.0	SSE	78.0	83.0	83.0	29.946	0.00	0.00	0.000	0.542	84.2	35	53.6	83.5	1403	1	100.0	60
09/05/19	2:00 a	77.4	78.0	77.4	94	75.5	0.0	SSE	0.00	7.0	S	77.4	82.2	82.2	29.950	0.00	0.00	0.000	0.517	85.0	36	55.1	84.4	1405	1	100.0	60
09/05/19	3:00 a	76.8	77.4	76.8	95	75.3	0.0	S	0.00	6.0	S	76.8	81.2	81.2	29.940	0.00	0.00	0.000	0.492	84.9	36	55.0	84.3	1405	1	100.0	60
09/05/19	4:00 a	76.1	76.8	76.1	96	74.9	0.0	S	0.00	5.0	S	76.1	80.2	80.2	29.937	0.00	0.00	0.000	0.462	83.3	36	53.6	82.4	1405	1	100.0	60
09/05/19	5:00 a	75.3	76.1	75.3	97	74.4	0.0	S	0.00	5.0	S	75.3	79.2	79.2	29.942	0.00	0.00	0.000	0.429	83.6	36	53.8	82.9	1405	1	100.0	60
09/05/19	6:00 a	75.5	75.5	75.3	98	74.9	0.0	S	0.00	6.0	S	75.5	79.5	79.5	29.944	0.00	0.00	0.000	0.438	83.7	37	54.7	83.2	1405	1	100.0	60
09/05/19	7:00 a	75.9	76.0	75.5	99	75.6	0.0	SE	0.00	5.0	S	75.9	80.1	80.1	29.953	0.00	0.00	0.000	0.454	82.0	36	52.4	80.8	1405	1	100.0	60
09/05/19	8:00 a	77.5	77.5	75.9	99	77.2	5.0	NE	5.00	10.0	NNE	77.5	83.1	83.1	29.966	0.00	0.00	0.000	0.521	82.8	37	53.9	81.9	1405	1	100.0	60
09/05/19	9:00 a	79.3	79.3	77.5	97	78.4	4.0	NE	4.00	10.0	ENE	79.3	87.0	87.0	29.956	0.00	0.00	0.000	0.596	82.3	36	52.7	81.2	1405	1	100.0	60
09/05/19	10:00 a	82.1	82.1	79.3	91	79.2	5.0	SSE	5.00	11.0	NE	82.1	92.7	92.7	29.942	0.00	0.00	0.000	0.712	83.6	37	54.6	83.1	1405	1	100.0	60
09/05/19	11:00 a	84.8	84.8	82.1	80	77.9	5.0	SSE	5.00	14.0	SE	84.8	96.0	96.0	29.942	0.00	0.00	0.000	0.825	84.1	36	54.3	83.6	1405	1	100.0	60
09/05/19	12:00 p	86.2	86.3	84.8	67	74.0	6.0	ENE	6.00	16.0	ENE	86.2	94.6	94.6	29.928	0.00	0.00	0.000	0.883	85.3	38	56.8	85.1	1404	1	100.0	60
09/05/19	1:00 p	85.3	86.2	85.3	66	72.6	6.0	ENE	6.00	16.0	ENE	85.3	92.2	92.2	29.922	0.00	0.00	0.000	0.846	84.5	36	54.6	83.9	1405	1	100.0	60
09/05/19	2:00 p	86.1	86.2	85.3	64	72.5	7.0	ENE	7.00	21.0	NE	86.1	93.2	93.2	29.920	0.00	0.00	0.000	0.879	86.6	38	58.0	86.5	1405	1	100.0	60
09/05/19	3:00 p	84.5	86.1	84.5	66	71.9	10.0	ENE	10.00	23.0	ENE	83.5	90.5	89.5	29.892	0.00	0.00	0.000	0.813	85.1	37	55.9	84.7	1405	1	100.0	60
09/05/19	4:00 p	81.9	84.5	81.9	85	76.9	11.0	ENE	11.00	22.0	ENE	80.2	90.1	88.4	29.879	0.00	0.00	0.000	0.704	86.4	37	57.0	86.1	1405	1	100.0	60
09/05/19	5:00 p	80.7	81.8	80.7	90	77.5	12.0	NE	12.00	21.0	NE	78.6	88.5	86.4	29.871	0.00	0.00	0.000	0.654	84.9	38	56.5	84.7	1405	1	100.0	60
09/05/19	6:00 p	78.5	80.7	78.5	96	77.3	11.0	ENE	11.00	21.0	NNE	76.4	84.8	82.7	29.865	0.04	0.26	0.000	0.563	85.2	38	56.7	85.0	1405	1	100.0	60
09/05/19	7:00 p	78.2	78.5	78.2	95	76.6	12.0	ENE	12.00	24.0	ENE	75.7	83.9	81.4	29.851	0.00	0.00	0.000	0.550	84.5	39	56.8	84.5	1405	1	100.0	60
09/05/19	8:00 p	78.0	78.2	78.0	94	76.1	13.0	ENE	13.00	23.0	NE	75.2	83.3	80.5	29.840	0.00	0.00	0.000	0.542	83.7	38	55.4	83.4	1405	1	100.0	60
09/05/19	9:00 p	77.8	78.0	77.8	94	75.9	13.0	NE	13.00	24.0	ENE	75.0	82.9	80.1	29.839	0.00	0.00	0.000	0.533	84.6	41	58.3	85.0	1405	1	100.0	60
09/05/19	10:00 p	77.8	77.8	77.7	93	75.6	12.0	ENE	12.00	24.0	ENE	75.3	82.8	80.3	29.804	0.00	0.00	0.000	0.533	82.7	40	55.9	82.3	1405	1	100.0	60
09/05/19	11:00 p	77.8	77.9	77.6	89	74.3	14.0	ENE	14.00	27.0	ENE	74.7	82.3	79.2	29.784	0.00	0.00	0.000	0.533	84.1	42	58.5	84.7	1405	1	100.0	60
09/06/19	12:00 a	76.5	78.0	76.5	93	74.3	13.0	ENE	13.00	26.0	NNE	73.5	80.6	77.6	29.762	0.01	0.00	0.000	0.479	82.8	42	57.4	82.7	1405	1	100.0	60
FRIDAY			Temp	Hi	Low	Out	Dew	Wind	Wind	Wind	Hi	Hi	Wind	Heat	THW			Rain	Heat	Cool	In 	In	In 	In 	Wind	Wind	ISS 	Arc.
Date		Time	Out	Temp	Temp	Hum	Pt.	Speed	Dir	Run	Speed	Dir	Chill	Index	Index	Bar  	Rain	Rate	D-D 	D-D 	Temp	Hum	Dew	Heat	Samp	Tx 	Recept	Int.
09/06/19	1:00 a	77.1	77.1	76.3	92	74.6	15.0	NE	15.00	28.0	ENE	73.6	81.4	77.9	29.736	0.00	0.00	0.000	0.504	83.1	42	57.6	83.2	1403	1	100.0	60
09/06/19	2:00 a	77.3	77.3	77.1	91	74.5	16.0	NE	16.00	34.0	N	73.6	81.6	77.9	29.707	0.00	0.00	0.000	0.513	82.4	44	58.3	82.4	1405	1	100.0	60
09/06/19	3:00 a	76.5	77.3	76.5	96	75.3	15.0	ENE	15.00	27.0	NE	73.0	80.9	77.4	29.672	0.05	0.17	0.000	0.479	82.1	43	57.4	81.8	1405	1	100.0	60
09/06/19	4:00 a	75.7	76.5	75.7	98	75.1	16.0	NE	16.00	30.0	NNE	71.8	79.8	75.9	29.635	0.18	0.59	0.000	0.446	82.4	46	59.5	82.7	1405	1	100.0	60
09/06/19	5:00 a	75.4	75.7	75.0	99	75.1	16.0	NE	16.00	28.0	NE	71.4	79.4	75.4	29.595	0.08	0.15	0.000	0.433	81.7	43	57.0	81.3	1405	1	100.0	60
09/06/19	6:00 a	75.2	75.5	74.4	99	74.9	17.0	NE	17.00	34.0	E	70.9	79.1	74.8	29.559	0.08	0.13	0.000	0.425	82.2	48	60.6	82.6	1405	1	100.0	60
09/06/19	7:00 a	74.4	75.2	73.3	100	74.4	19.0	NE	19.00	48.0	ENE	69.6	78.1	73.3	29.536	0.25	2.13	0.000	0.392	80.8	46	58.1	80.5	1405	1	100.0	60
09/06/19	8:00 a	73.4	74.8	73.4	97	72.5	21.0	NE	21.00	49.0	ENE	68.1	76.6	71.3	29.519	0.15	0.25	0.000	0.350	82.4	49	61.3	83.1	1399	1	100.0	60
09/06/19	9:00 a	71.2	73.4	71.2	97	70.3	20.0	NE	20.00	39.0	NNE	65.8	74.3	68.9	29.511	0.21	0.53	0.000	0.258	83.0	51	63.0	84.3	1405	1	100.0	60
09/06/19	10:00 a	70.7	71.7	70.7	95	69.2	21.0	NE	21.00	52.0	NE	65.1	73.3	67.7	29.508	0.12	0.18	0.000	0.237	83.4	52	63.9	85.1	1405	1	100.0	60
09/06/19	11:00 a	70.6	71.2	70.2	99	70.3	18.0	NE	18.00	39.0	NE	65.6	74.0	69.0	29.508	0.19	0.35	0.000	0.233	83.4	52	63.9	85.1	1405	1	100.0	60
09/06/19	12:00 p	72.0	72.0	70.6	100	72.0	17.0	NE	17.00	38.0	NE	67.4	75.6	71.0	29.523	0.14	0.47	0.000	0.292	80.8	46	58.1	80.5	1405	1	100.0	60
09/06/19	1:00 p	72.2	72.8	72.0	99	71.9	16.0	NNW	16.00	34.0	NNW	67.8	75.6	71.2	29.544	0.10	0.29	0.000	0.300	81.7	49	60.7	82.0	1405	1	100.0	60
09/06/19	2:00 p	70.7	72.2	70.6	99	70.4	16.0	NNW	16.00	33.0	NNW	66.2	74.1	69.6	29.574	0.07	0.12	0.000	0.237	82.2	50	61.7	82.9	1404	1	100.0	60
09/06/19	3:00 p	69.7	70.7	69.6	99	69.4	16.0	NNW	16.00	32.0	NNW	65.1	72.8	68.2	29.606	0.01	0.06	0.000	0.196	82.4	51	62.5	83.4	1405	1	100.0	60
09/06/19	4:00 p	69.4	69.7	69.4	98	68.8	15.0	NW	15.00	29.0	NNW	65.1	72.2	67.9	29.639	0.00	0.00	0.000	0.183	82.6	51	62.6	83.7	1406	1	100.0	60
09/06/19	5:00 p	69.5	69.6	69.4	96	68.3	15.0	NW	15.00	29.0	W	65.2	72.1	67.8	29.687	0.00	0.00	0.000	0.188	82.8	51	62.8	84.0	1404	1	100.0	60
09/06/19	6:00 p	69.7	69.8	69.4	93	67.6	14.0	NW	14.00	29.0	NNW	65.8	72.0	68.1	29.718	0.00	0.00	0.000	0.196	82.8	51	62.8	84.0	1405	1	100.0	60
09/06/19	7:00 p	70.2	70.3	69.7	91	67.4	13.0	NNW	13.00	28.0	WNW	66.7	72.3	68.8	29.753	0.00	0.00	0.000	0.217	82.7	51	62.7	83.9	1405	1	100.0	60
09/06/19	8:00 p	70.3	70.3	70.1	91	67.5	10.0	NNW	10.00	19.0	NW	68.2	72.5	70.4	29.770	0.00	0.00	0.000	0.221	82.5	51	62.5	83.5	1405	1	100.0	60
09/06/19	9:00 p	69.3	70.3	69.3	93	67.2	7.0	NNW	7.00	17.0	NW	69.3	71.5	71.5	29.780	0.00	0.00	0.000	0.179	82.2	51	62.3	83.1	1405	1	100.0	60
09/06/19	10:00 p	68.7	69.3	68.7	93	66.6	5.0	NNW	5.00	17.0	N	68.7	70.8	70.8	29.788	0.00	0.00	0.000	0.154	81.8	51	61.9	82.5	1405	1	100.0	60
09/06/19	11:00 p	67.4	68.7	67.4	94	65.6	4.0	NNW	4.00	7.0	NNW	67.4	69.1	69.1	29.795	0.00	0.00	0.000	0.100	81.5	51	61.6	82.0	1405	1	100.0	60
09/07/19	12:00 a	65.6	67.4	65.6	96	64.4	0.0	NNW	0.00	4.0	NNW	65.6	66.9	66.9	29.801	0.00	0.00	0.000	0.025	81.2	51	61.4	81.6	1405	1	100.0	60
SATURDAY		Temp	Hi	Low	Out	Dew	Wind	Wind	Wind	Hi	Hi	Wind	Heat	THW			Rain	Heat	Cool	In 	In	In 	In 	Wind	Wind	ISS 	Arc.
Date		Time	Out	Temp	Temp	Hum	Pt.	Speed	Dir	Run	Speed	Dir	Chill	Index	Index	Bar  	Rain	Rate	D-D 	D-D 	Temp	Hum	Dew	Heat	Samp	Tx 	Recept	Int.
09/07/19	1:00 a	64.5	65.6	64.5	97	63.6	0.0	NNW	0.00	5.0	NNW	64.5	65.6	65.6	29.801	0.00	0.00	0.021	0.000	80.8	51	61.0	81.1	1404	1	100.0	60
09/07/19	2:00 a	64.6	64.6	64.5	98	64.0	0.0	NNW	0.00	6.0	NNW	64.6	65.8	65.8	29.811	0.00	0.00	0.017	0.000	80.4	51	60.6	80.7	1405	1	100.0	60
09/07/19	3:00 a	64.1	64.6	64.1	98	63.5	0.0	---	0.00	0.0	---	64.1	65.2	65.2	29.807	0.00	0.00	0.038	0.000	80.0	51	60.2	80.2	1404	1	100.0	60
09/07/19	4:00 a	64.3	64.3	64.1	99	64.0	0.0	NNW	0.00	5.0	NNW	64.3	65.4	65.4	29.809	0.00	0.00	0.029	0.000	79.8	51	60.1	80.0	1405	1	100.0	60
09/07/19	5:00 a	65.0	65.0	64.3	99	64.7	0.0	NNW	0.00	5.0	NNW	65.0	66.3	66.3	29.821	0.00	0.00	0.000	0.000	79.5	51	59.8	79.7	1405	1	100.0	60
09/07/19	6:00 a	64.9	65.2	64.9	99	64.6	0.0	NNW	0.00	5.0	NNW	64.9	66.2	66.2	29.838	0.00	0.00	0.004	0.000	79.4	51	59.7	79.7	1405	1	100.0	60
09/07/19	7:00 a	64.0	64.9	64.0	99	63.7	0.0	NNW	0.00	4.0	NNW	64.0	65.1	65.1	29.860	0.00	0.00	0.042	0.000	79.4	51	59.7	79.7	1405	1	100.0	60
09/07/19	8:00 a	64.3	64.3	63.8	100	64.3	0.0	NW	0.00	5.0	NW	64.3	65.5	65.5	29.875	0.00	0.00	0.029	0.000	79.6	51	59.9	79.8	1405	1	100.0	60
09/07/19	9:00 a	67.4	67.4	64.3	100	67.4	4.0	SW	4.00	6.0	NW	67.4	69.3	69.3	29.888	0.00	0.00	0.000	0.100	80.5	50	60.1	80.6	1405	1	100.0	60
09/07/19	10:00 a	69.7	69.7	67.4	98	69.1	4.0	WNW	4.00	7.0	WNW	69.7	72.7	72.7	29.890	0.00	0.00	0.000	0.196	82.5	49	61.4	83.3	1405	1	100.0	60
09/07/19	11:00 a	73.8	73.8	69.7	87	69.7	4.0	S	4.00	11.0	W	73.8	76.1	76.1	29.894	0.00	0.00	0.000	0.367	84.7	48	62.8	86.2	1405	1	100.0	60
09/07/19	12:00 p	77.0	77.0	73.8	82	71.1	5.0	NNW	5.00	13.0	NW	77.0	80.2	80.2	29.883	0.00	0.00	0.000	0.500	86.8	48	64.8	89.2	1405	1	100.0	60
09/07/19	1:00 p	79.3	79.3	77.0	67	67.4	6.0	W	6.00	15.0	NW	79.3	81.3	81.3	29.873	0.00	0.00	0.000	0.596	85.9	43	60.8	86.6	1405	1	100.0	60
09/07/19	2:00 p	81.0	81.0	79.3	66	68.6	5.0	WSW	5.00	15.0	N	81.0	83.7	83.7	29.869	0.00	0.00	0.000	0.667	86.6	42	60.8	87.4	1405	1	100.0	60
09/07/19	3:00 p	82.3	82.3	81.0	66	69.8	5.0	W	5.00	13.0	NNW	82.3	86.0	86.0	29.858	0.00	0.00	0.000	0.721	88.5	40	61.1	89.0	1405	1	100.0	60
09/07/19	4:00 p	84.0	84.0	82.3	64	70.5	6.0	WNW	6.00	15.0	WNW	84.0	88.9	88.9	29.852	0.00	0.00	0.000	0.792	89.2	42	63.1	91.0	1404	1	100.0	60
09/07/19	5:00 p	84.7	84.7	84.1	61	69.8	5.0	SW	5.00	14.0	SSW	84.7	89.2	89.2	29.854	0.00	0.00	0.000	0.821	89.5	38	60.5	90.0	1405	1	100.0	60
09/07/19	6:00 p	82.9	84.7	82.9	71	72.5	6.0	SSE	6.00	16.0	NE	82.9	88.5	88.5	29.869	0.00	0.00	0.000	0.746	89.5	40	62.0	90.6	1405	1	100.0	60
09/07/19	7:00 p	80.4	82.9	80.4	75	71.7	7.0	SSE	7.00	15.0	SSE	80.4	84.3	84.3	29.882	0.00	0.00	0.000	0.642	88.1	38	59.3	87.8	1405	1	100.0	60
09/07/19	8:00 p	77.2	80.4	77.2	81	70.9	7.0	SSE	7.00	14.0	SSE	77.2	80.4	80.4	29.904	0.00	0.00	0.000	0.508	85.7	38	57.2	85.5	1405	1	100.0	60
09/07/19	9:00 p	74.8	77.2	74.8	83	69.3	6.0	SSE	6.00	12.0	S	74.8	77.5	77.5	29.927	0.00	0.00	0.000	0.408	86.4	39	58.5	86.5	1405	1	100.0	60
09/07/19	10:00 p	73.2	74.8	73.2	85	68.4	5.0	SSE	5.00	12.0	SSW	73.2	75.3	75.3	29.945	0.00	0.00	0.000	0.342	84.0	38	55.7	83.9	1405	1	100.0	60
09/07/19	11:00 p	71.9	73.2	71.9	90	68.8	0.0	SSE	0.00	7.0	S	71.9	74.1	74.1	29.949	0.00	0.00	0.000	0.288	84.3	39	56.6	84.3	1405	1	100.0	60
09/08/19	12:00 a	70.8	71.9	70.8	92	68.4	0.0	ESE	0.00	5.0	ESE	70.8	73.2	73.2	29.955	0.00	0.00	0.000	0.242	83.7	40	56.8	83.8	1405	1	100.0	60
SUNDAY			Temp	Hi	Low	Out	Dew	Wind	Wind	Wind	Hi	Hi	Wind	Heat	THW			Rain	Heat	Cool	In 	In	In 	In 	Wind	Wind	ISS 	Arc.
Date		Time	Out	Temp	Temp	Hum	Pt.	Speed	Dir	Run	Speed	Dir	Chill	Index	Index	Bar  	Rain	Rate	D-D 	D-D 	Temp	Hum	Dew	Heat	Samp	Tx 	Recept	Int.
09/08/19	1:00 a	69.9	70.9	69.9	94	68.1	0.0	ESE	0.00	5.0	ESE	69.9	72.3	72.3	29.969	0.00	0.00	0.000	0.204	83.3	41	57.1	83.3	1404	1	100.0	60
09/08/19	2:00 a	69.3	69.9	69.3	95	67.8	0.0	ESE	0.00	5.0	ESE	69.3	71.7	71.7	29.968	0.00	0.00	0.000	0.179	82.9	42	57.5	82.9	1405	1	100.0	60
09/08/19	3:00 a	68.8	69.3	68.8	96	67.6	0.0	ENE	0.00	5.0	ENE	68.8	71.1	71.1	29.966	0.00	0.00	0.000	0.158	81.2	41	55.3	80.4	1405	1	100.0	60
09/08/19	4:00 a	68.4	68.8	68.4	97	67.5	0.0	ENE	0.00	4.0	ENE	68.4	70.6	70.6	29.964	0.00	0.00	0.000	0.142	81.2	42	55.9	80.5	1404	1	100.0	60
09/08/19	5:00 a	68.5	68.5	68.4	98	67.9	0.0	ENE	0.00	4.0	ENE	68.5	70.8	70.8	29.973	0.00	0.00	0.000	0.146	81.0	42	55.7	80.2	1405	1	100.0	60
09/08/19	6:00 a	69.1	69.1	68.5	99	68.8	0.0	ENE	0.00	4.0	ENE	69.1	71.9	71.9	29.983	0.00	0.00	0.000	0.171	80.8	43	56.2	80.2	1405	1	100.0	60
09/08/19	7:00 a	69.7	69.7	69.1	99	69.4	0.0	ESE	0.00	6.0	ESE	69.7	72.8	72.8	29.999	0.00	0.00	0.000	0.196	81.2	43	56.6	80.6	1405	1	100.0	60
09/08/19	8:00 a	70.4	70.4	69.7	99	70.1	0.0	ESE	0.00	5.0	ESE	70.4	73.8	73.8	30.009	0.00	0.00	0.000	0.225	79.6	41	53.8	78.8	1405	1	100.0	60
09/08/19	9:00 a	73.5	73.5	70.4	100	73.5	4.0	SSE	4.00	10.0	SSE	73.5	77.1	77.1	30.028	0.00	0.00	0.000	0.354	80.5	41	54.6	79.6	1405	1	100.0	60
09/08/19	10:00 a	77.3	77.3	73.5	99	77.0	5.0	SSW	5.00	12.0	SW	77.3	82.7	82.7	30.035	0.00	0.00	0.000	0.513	81.3	40	54.7	80.4	1405	1	100.0	60
09/08/19	11:00 a	81.2	81.2	77.3	89	77.6	5.0	SW	5.00	14.0	WSW	81.2	89.5	89.5	30.042	0.00	0.00	0.000	0.675	83.3	42	57.8	83.5	1405	1	100.0	60
09/08/19	12:00 p	82.4	82.4	81.2	84	77.1	4.0	NW	4.00	7.0	WNW	82.4	91.2	91.2	30.027	0.00	0.00	0.000	0.725	84.1	43	59.2	84.9	1405	1	100.0	60
09/08/19	1:00 p	83.9	83.9	82.4	81	77.4	5.0	ENE	5.00	11.0	ENE	83.9	94.5	94.5	30.010	0.00	0.00	0.000	0.788	83.9	42	58.3	84.5	1405	1	100.0	60
09/08/19	2:00 p	86.6	87.0	84.0	74	77.3	5.0	S	5.00	13.0	SSE	86.6	98.2	98.2	29.996	0.00	0.00	0.000	0.900	87.2	44	62.6	88.6	1405	1	100.0	60
09/08/19	3:00 p	84.0	86.6	84.0	79	76.8	7.0	ENE	7.00	17.0	NE	84.0	94.1	94.1	29.993	0.00	0.00	0.000	0.792	86.2	41	59.7	86.6	1405	1	100.0	60
09/08/19	4:00 p	83.0	84.0	82.9	81	76.6	11.0	NE	11.00	19.0	NW	81.5	92.0	90.5	29.981	0.00	0.00	0.000	0.750	88.2	41	61.5	88.8	1405	1	100.0	60
09/08/19	5:00 p	83.6	83.9	83.0	81	77.1	10.0	NE	10.00	17.0	NE	82.5	93.7	92.6	29.976	0.00	0.00	0.000	0.775	87.1	40	59.8	87.5	1405	1	100.0	60
09/08/19	6:00 p	82.9	83.6	82.9	82	76.8	6.0	NE	6.00	14.0	ENE	82.9	92.0	92.0	29.991	0.00	0.00	0.000	0.746	88.2	41	61.5	88.8	1405	1	100.0	60
09/08/19	7:00 p	80.7	82.9	80.7	84	75.4	4.0	ENE	4.00	10.0	ENE	80.7	86.9	86.9	30.001	0.00	0.00	0.000	0.654	85.8	39	58.0	85.8	1404	1	100.0	60
09/08/19	8:00 p	79.7	80.7	79.7	91	76.8	4.0	ENE	4.00	10.0	NE	79.7	86.4	86.4	30.013	0.00	0.00	0.000	0.612	84.4	38	56.0	84.2	1406	1	100.0	60
09/08/19	9:00 p	78.4	79.7	78.4	94	76.5	7.0	NE	7.00	14.0	ENE	78.4	84.2	84.2	30.043	0.00	0.00	0.000	0.558	85.0	40	58.0	85.1	1404	1	100.0	60
09/08/19	10:00 p	77.6	78.5	77.6	95	76.1	7.0	NE	7.00	15.0	NNE	77.6	82.6	82.6	30.049	0.00	0.00	0.000	0.525	83.0	39	55.5	82.5	1405	1	100.0	60
09/08/19	11:00 p	77.3	77.6	77.2	95	75.8	6.0	NE	6.00	15.0	ENE	77.3	82.1	82.1	30.061	0.00	0.00	0.000	0.513	83.7	40	56.8	83.8	1405	1	100.0	60
09/09/19	12:00 a	76.8	77.3	76.8	95	75.3	6.0	ENE	6.00	14.0	NE	76.8	81.2	81.2	30.059	0.00	0.00	0.000	0.492	81.9	39	54.5	81.1	1405	1	100.0	60
MONDAY			Temp	Hi	Low	Out	Dew	Wind	Wind	Wind	Hi	Hi	Wind	Heat	THW			Rain	Heat	Cool	In 	In	In 	In 	Wind	Wind	ISS 	Arc.
Date		Time	Out	Temp	Temp	Hum	Pt.	Speed	Dir	Run	Speed	Dir	Chill	Index	Index	Bar  	Rain	Rate	D-D 	D-D 	Temp	Hum	Dew	Heat	Samp	Tx 	Recept	Int.
09/09/19	1:00 a	76.4	76.9	76.4	96	75.2	4.0	ENE	4.00	11.0	ENE	76.4	80.7	80.7	30.063	0.00	0.00	0.000	0.475	83.0	40	56.2	82.7	1404	1	100.0	60
09/09/19	2:00 a	75.9	76.4	75.9	96	74.7	4.0	NE	4.00	10.0	NE	75.9	79.9	79.9	30.062	0.00	0.00	0.000	0.454	83.2	41	57.1	83.2	1405	1	100.0	60
09/09/19	3:00 a	75.0	75.9	75.0	96	73.8	0.0	ENE	0.00	7.0	NE	75.0	78.7	78.7	30.055	0.00	0.00	0.000	0.417	83.2	41	57.1	83.2	1405	1	100.0	60
09/09/19	4:00 a	74.4	75.0	74.4	97	73.5	4.0	NE	4.00	10.0	NE	74.4	77.8	77.8	30.060	0.00	0.00	0.000	0.392	83.1	41	57.0	83.0	1405	1	100.0	60
09/09/19	5:00 a	74.7	74.7	74.3	96	73.5	5.0	NE	5.00	15.0	NE	74.7	78.2	78.2	30.070	0.00	0.00	0.000	0.404	81.4	40	54.8	80.5	1405	1	100.0	60
09/09/19	6:00 a	74.8	74.9	74.7	95	73.3	5.0	ENE	5.00	14.0	ENE	74.8	78.4	78.4	30.083	0.00	0.00	0.000	0.408	81.9	41	55.9	81.3	1405	1	100.0	60
09/09/19	7:00 a	73.9	74.8	73.9	96	72.7	0.0	ENE	0.00	6.0	ENE	73.9	77.0	77.0	30.099	0.00	0.00	0.000	0.371	82.0	41	56.0	81.4	1404	1	100.0	60
09/09/19	8:00 a	74.0	74.0	73.4	99	73.7	0.0	E	0.00	10.0	NE	74.0	77.5	77.5	30.118	0.00	0.00	0.000	0.375	82.2	42	56.8	81.8	1405	1	100.0	60
09/09/19	9:00 a	76.0	76.0	74.0	94	74.1	5.0	ENE	5.00	12.0	ENE	76.0	79.9	79.9	30.131	0.00	0.00	0.000	0.458	81.5	40	54.8	80.7	1405	1	100.0	60
09/09/19	10:00 a	78.0	78.0	76.0	88	74.2	5.0	ENE	5.00	12.0	E	78.0	82.5	82.5	30.152	0.00	0.00	0.000	0.542	83.0	41	56.9	82.9	1406	1	100.0	60
09/09/19	11:00 a	80.8	80.8	78.0	84	75.5	6.0	ENE	6.00	15.0	ENE	80.8	87.1	87.1	30.143	0.00	0.00	0.000	0.658	82.9	39	55.4	82.4	1404	1	100.0	60
09/09/19	12:00 p	80.3	81.1	80.3	85	75.4	10.0	ENE	10.00	19.0	ENE	78.7	86.3	84.7	30.154	0.00	0.00	0.000	0.638	84.7	42	59.1	85.2	1405	1	100.0	60
09/09/19	1:00 p	80.4	80.5	80.2	84	75.1	7.0	NE	7.00	14.0	NE	80.4	86.2	86.2	30.147	0.00	0.00	0.000	0.642	84.1	39	56.5	84.2	1405	1	100.0	60
09/09/19	2:00 p	80.4	80.6	80.4	84	75.1	7.0	ENE	7.00	15.0	NE	80.4	86.2	86.2	30.149	0.00	0.00	0.000	0.642	85.7	42	60.0	86.2	1405	1	100.0	60
09/09/19	3:00 p	81.5	81.6	80.4	80	74.7	7.0	ENE	7.00	17.0	ENE	81.5	87.7	87.7	30.131	0.00	0.00	0.000	0.688	85.4	39	57.6	85.4	1405	1	100.0	60
09/09/19	4:00 p	82.0	82.1	81.5	80	75.2	7.0	ENE	7.00	17.0	ENE	82.0	88.9	88.9	30.130	0.00	0.00	0.000	0.708	87.5	41	60.9	88.0	1405	1	100.0	60
09/09/19	5:00 p	79.8	82.0	79.8	82	73.8	11.0	NE	11.00	18.0	NE	77.9	84.6	82.7	30.131	0.00	0.00	0.000	0.617	85.8	38	57.3	85.6	1405	1	100.0	60
09/09/19	6:00 p	78.6	79.8	78.6	80	71.9	7.0	NE	7.00	18.0	ENE	78.6	82.2	82.2	30.146	0.00	0.00	0.000	0.567	87.2	41	60.6	87.8	1405	1	100.0	60
09/09/19	7:00 p	77.4	78.6	77.4	83	71.8	6.0	ENE	6.00	16.0	NE	77.4	80.9	80.9	30.157	0.00	0.00	0.000	0.517	84.4	38	56.0	84.2	1405	1	100.0	60
09/09/19	8:00 p	76.3	77.4	76.3	86	71.8	5.0	ENE	5.00	11.0	NE	76.3	79.7	79.7	30.173	0.00	0.00	0.000	0.471	85.5	40	58.4	85.6	1405	1	100.0	60
09/09/19	9:00 p	75.6	76.3	75.6	87	71.5	5.0	ENE	5.00	14.0	NNE	75.6	78.9	78.9	30.185	0.00	0.00	0.000	0.442	84.2	38	55.8	84.1	1405	1	100.0	60
09/09/19	10:00 p	74.9	75.6	74.9	90	71.8	5.0	ENE	5.00	12.0	NE	74.9	78.2	78.2	30.209	0.00	0.00	0.000	0.413	83.5	39	55.9	83.3	1404	1	100.0	60
09/09/19	11:00 p	74.4	74.9	74.4	92	71.9	5.0	NE	5.00	14.0	NE	74.4	77.4	77.4	30.205	0.00	0.00	0.000	0.392	83.5	40	56.6	83.5	1405	1	100.0	60
09/10/19	12:00 a	73.8	74.4	73.8	94	72.0	4.0	ENE	4.00	11.0	NE	73.8	76.7	76.7	30.203	0.00	0.00	0.000	0.367	82.1	39	54.7	81.3	1405	1	100.0	60
TUESDAY			Temp	Hi	Low	Out	Dew	Wind	Wind	Wind	Hi	Hi	Wind	Heat	THW			Rain	Heat	Cool	In 	In	In 	In 	Wind	Wind	ISS 	Arc.
Date		Time	Out	Temp	Temp	Hum	Pt.	Speed	Dir	Run	Speed	Dir	Chill	Index	Index	Bar  	Rain	Rate	D-D 	D-D 	Temp	Hum	Dew	Heat	Samp	Tx 	Recept	Int.
09/10/19	1:00 a	73.4	73.8	73.4	95	71.9	4.0	ENE	4.00	14.0	NE	73.4	76.3	76.3	30.204	0.00	0.00	0.000	0.350	82.5	40	55.7	82.0	1404	1	100.0	60
09/10/19	2:00 a	72.8	73.4	72.8	96	71.6	4.0	NE	4.00	7.0	NE	72.8	75.8	75.8	30.206	0.00	0.00	0.000	0.325	82.4	40	55.7	81.9	1405	1	100.0	60
09/10/19	3:00 a	72.2	72.8	72.2	96	71.0	4.0	NE	4.00	7.0	NE	72.2	75.2	75.2	30.204	0.00	0.00	0.000	0.300	82.4	41	56.3	82.0	1405	1	100.0	60
09/10/19	4:00 a	71.9	72.2	71.9	97	71.0	4.0	ENE	4.00	7.0	NE	71.9	75.0	75.0	30.211	0.00	0.00	0.000	0.288	80.4	39	53.2	79.3	1405	1	100.0	60
09/10/19	5:00 a	70.8	71.9	70.8	97	69.9	0.0	ENE	0.00	5.0	ENE	70.8	73.9	73.9	30.221	0.00	0.00	0.000	0.242	80.9	40	54.3	79.9	1405	1	100.0	60
09/10/19	6:00 a	70.6	70.8	70.6	98	70.0	0.0	ENE	0.00	5.0	ENE	70.6	73.8	73.8	30.240	0.00	0.00	0.000	0.233	80.9	41	55.0	80.0	1405	1	100.0	60
09/10/19	7:00 a	70.3	70.6	70.3	98	69.7	0.0	ENE	0.00	5.0	ENE	70.3	73.5	73.5	30.253	0.00	0.00	0.000	0.221	81.1	41	55.2	80.2	1405	1	100.0	60
09/10/19	8:00 a	72.1	72.1	70.2	100	72.1	4.0	ENE	4.00	12.0	ENE	72.1	75.7	75.7	30.270	0.00	0.00	0.000	0.296	81.4	41	55.4	80.6	1405	1	100.0	60
09/10/19	9:00 a	74.4	74.4	72.1	91	71.6	10.0	NE	10.00	19.0	ENE	72.4	77.3	75.3	30.293	0.00	0.00	0.000	0.392	80.1	40	53.6	79.1	1405	1	100.0	60
09/10/19	10:00 a	76.7	76.7	74.4	86	72.2	7.0	NE	7.00	17.0	E	76.7	80.3	80.3	30.302	0.00	0.00	0.000	0.487	82.4	41	56.3	82.0	1404	1	100.0	60
09/10/19	11:00 a	78.3	78.3	76.7	78	70.9	7.0	ENE	7.00	16.0	E	78.3	81.5	81.5	30.302	0.00	0.00	0.000	0.554	83.3	38	55.0	82.8	1405	1	100.0	60
09/10/19	12:00 p	79.8	79.8	78.3	77	71.9	7.0	ENE	7.00	20.0	ENE	79.8	83.6	83.6	30.292	0.00	0.00	0.000	0.617	85.7	43	60.6	86.4	1405	1	100.0	60
09/10/19	1:00 p	80.6	80.7	79.8	73	71.1	7.0	ENE	7.00	18.0	NE	80.6	84.3	84.3	30.288	0.00	0.00	0.000	0.650	85.9	40	58.8	86.1	1406	1	100.0	60
09/10/19	2:00 p	81.6	81.6	80.7	69	70.4	6.0	NE	6.00	15.0	NE	81.6	85.3	85.3	30.276	0.00	0.00	0.000	0.692	88.4	43	63.1	89.9	1404	1	100.0	60
09/10/19	3:00 p	82.2	82.2	81.6	65	69.3	6.0	ENE	6.00	16.0	ENE	82.2	85.5	85.5	30.268	0.00	0.00	0.000	0.717	88.3	38	59.5	88.1	1405	1	100.0	60
09/10/19	4:00 p	83.1	83.1	82.1	66	70.6	6.0	SSE	6.00	15.0	S	83.1	87.4	87.4	30.263	0.00	0.00	0.000	0.754	90.8	42	64.5	93.4	1405	1	100.0	60
09/10/19	5:00 p	82.6	83.1	82.6	64	69.2	5.0	ENE	5.00	13.0	ENE	82.6	86.0	86.0	30.256	0.00	0.00	0.000	0.733	90.3	34	58.1	90.1	1405	1	100.0	60
09/10/19	6:00 p	81.7	82.6	81.7	65	68.8	5.0	ENE	5.00	14.0	S	81.7	84.7	84.7	30.255	0.00	0.00	0.000	0.696	90.6	39	62.3	91.9	1405	1	100.0	60
09/10/19	7:00 p	80.5	81.7	80.5	72	70.6	4.0	SSE	4.00	11.0	ENE	80.5	83.9	83.9	30.251	0.00	0.00	0.000	0.646	88.5	35	57.4	87.6	1405	1	100.0	60
09/10/19	8:00 p	77.7	80.5	77.7	79	70.7	4.0	SE	4.00	7.0	SSE	77.7	80.8	80.8	30.254	0.00	0.00	0.000	0.529	87.9	37	58.4	87.3	1405	1	100.0	60
09/10/19	9:00 p	75.2	77.7	75.2	86	70.7	4.0	SSE	4.00	10.0	SSE	75.2	78.3	78.3	30.259	0.00	0.00	0.000	0.425	86.6	36	56.5	86.1	1405	1	100.0	60
09/10/19	10:00 p	73.5	75.2	73.5	90	70.4	0.0	ESE	0.00	6.0	ESE	73.5	76.0	76.0	30.259	0.00	0.00	0.000	0.354	85.2	37	56.0	84.8	1405	1	100.0	60
09/10/19	11:00 p	72.3	73.5	72.3	93	70.2	0.0	SE	0.00	5.0	SE	72.3	74.9	74.9	30.263	0.00	0.00	0.000	0.304	85.0	38	56.5	84.7	1405	1	100.0	60
09/11/19	12:00 a	71.6	72.4	71.6	95	70.1	0.0	ESE	0.00	5.0	SE	71.6	74.4	74.4	30.261	0.00	0.00	0.000	0.275	82.7	37	53.8	81.8	1405	1	100.0	60
WEDNESDAY		Temp	Hi	Low	Out	Dew	Wind	Wind	Wind	Hi	Hi	Wind	Heat	THW			Rain	Heat	Cool	In 	In	In 	In 	Wind	Wind	ISS 	Arc.
Date		Time	Out	Temp	Temp	Hum	Pt.	Speed	Dir	Run	Speed	Dir	Chill	Index	Index	Bar  	Rain	Rate	D-D 	D-D 	Temp	Hum	Dew	Heat	Samp	Tx 	Recept	Int.
09/11/19	1:00 a	71.0	71.6	71.0	96	69.8	0.0	ESE	0.00	6.0	ESE	71.0	73.9	73.9	30.266	0.00	0.00	0.000	0.250	83.1	38	54.9	82.5	1403	1	100.0	60
09/11/19	2:00 a	70.3	71.0	70.3	97	69.4	0.0	SE	0.00	4.0	SE	70.3	73.3	73.3	30.265	0.00	0.00	0.000	0.221	82.9	39	55.4	82.4	1405	1	100.0	60
09/11/19	3:00 a	69.4	70.3	69.4	97	68.5	0.0	SE	0.00	5.0	SE	69.4	72.1	72.1	30.249	0.00	0.00	0.000	0.183	82.6	40	55.8	82.1	1405	1	100.0	60
09/11/19	4:00 a	68.5	69.3	68.5	97	67.6	0.0	SE	0.00	4.0	SE	68.5	70.7	70.7	30.244	0.00	0.00	0.000	0.146	80.6	39	53.4	79.5	1405	1	100.0	60
09/11/19	5:00 a	67.7	68.5	67.7	97	66.8	0.0	---	0.00	0.0	---	67.7	69.6	69.6	30.234	0.00	0.00	0.000	0.112	80.8	40	54.2	79.8	1405	1	100.0	60
09/11/19	6:00 a	67.0	67.7	67.0	98	66.4	0.0	---	0.00	0.0	---	67.0	68.7	68.7	30.236	0.00	0.00	0.000	0.083	80.6	40	54.0	79.6	1405	1	100.0	60
09/11/19	7:00 a	66.5	67.0	66.4	98	65.9	0.0	SE	0.00	4.0	SE	66.5	68.1	68.1	30.250	0.00	0.00	0.000	0.063	81.0	41	55.1	80.1	1405	1	100.0	60
09/11/19	8:00 a	67.2	67.3	66.4	99	66.9	0.0	SE	0.00	4.0	SE	67.2	69.0	69.0	30.265	0.00	0.00	0.000	0.092	81.0	42	55.7	80.2	1405	1	100.0	60
09/11/19	9:00 a	71.1	71.1	67.2	100	71.1	0.0	SE	0.00	7.0	S	71.1	74.8	74.8	30.269	0.00	0.00	0.000	0.254	80.1	39	52.9	79.0	1405	1	100.0	60
09/11/19	10:00 a	73.7	73.7	71.1	100	73.7	4.0	SW	4.00	10.0	SW	73.7	77.3	77.3	30.257	0.00	0.00	0.000	0.362	82.4	39	55.0	81.7	1405	1	100.0	60
09/11/19	11:00 a	77.2	77.2	73.7	85	72.3	4.0	SSE	4.00	10.0	SSE	77.2	80.9	80.9	30.237	0.00	0.00	0.000	0.508	84.3	38	55.9	84.2	1405	1	100.0	60
09/11/19	12:00 p	80.7	80.7	77.2	75	72.0	5.0	SW	5.00	12.0	SW	80.7	84.9	84.9	30.218	0.00	0.00	0.000	0.654	85.4	39	57.6	85.4	1405	1	100.0	60
09/11/19	1:00 p	83.3	83.3	80.7	70	72.5	6.0	WSW	6.00	16.0	SSE	83.3	89.2	89.2	30.195	0.00	0.00	0.000	0.763	87.8	37	58.3	87.2	1404	1	100.0	60
09/11/19	2:00 p	85.5	85.5	83.3	68	73.7	6.0	SSW	6.00	15.0	SSE	85.5	93.4	93.4	30.159	0.00	0.00	0.000	0.854	88.5	40	61.1	89.0	1405	1	100.0	60
09/11/19	3:00 p	87.0	87.0	85.5	66	74.3	5.0	S	5.00	17.0	SSE	87.0	96.0	96.0	30.144	0.00	0.00	0.000	0.917	90.9	36	60.3	91.4	1406	1	100.0	60
09/11/19	4:00 p	87.7	87.7	87.0	64	74.0	5.0	SW	5.00	14.0	SSE	87.7	96.1	96.1	30.128	0.00	0.00	0.000	0.946	90.7	39	62.3	92.1	1404	1	100.0	60
09/11/19	5:00 p	88.1	88.1	87.7	66	75.3	5.0	SW	5.00	15.0	SSW	88.1	97.5	97.5	30.101	0.00	0.00	0.000	0.962	93.2	34	60.7	94.0	1405	1	100.0	60
09/11/19	6:00 p	87.4	88.1	87.4	66	74.6	6.0	SW	6.00	14.0	SW	87.4	96.5	96.5	30.094	0.00	0.00	0.000	0.933	91.6	34	59.3	91.8	1405	1	100.0	60
09/11/19	7:00 p	85.6	87.4	85.6	70	74.7	5.0	SSW	5.00	15.0	SW	85.6	94.3	94.3	30.093	0.00	0.00	0.000	0.858	92.5	38	63.2	94.6	1405	1	100.0	60
09/11/19	8:00 p	82.9	85.6	82.9	74	73.8	4.0	SW	4.00	11.0	S	82.9	89.5	89.5	30.117	0.00	0.00	0.000	0.746	89.0	36	58.6	88.6	1405	1	100.0	60
09/11/19	9:00 p	80.4	82.9	80.4	79	73.3	4.0	SSW	4.00	12.0	SSE	80.4	85.1	85.1	30.103	0.00	0.00	0.000	0.642	89.4	37	59.7	89.6	1405	1	100.0	60
09/11/19	10:00 p	78.1	80.4	78.1	82	72.2	5.0	S	5.00	13.0	SSE	78.1	81.8	81.8	30.118	0.00	0.00	0.000	0.546	86.7	35	55.8	85.9	1405	1	100.0	60
09/11/19	11:00 p	76.6	78.1	76.6	87	72.4	5.0	S	5.00	14.0	S	76.6	80.2	80.2	30.117	0.00	0.00	0.000	0.483	87.0	37	57.6	86.7	1405	1	100.0	60
THURSDAY		Temp	Hi	Low	Out	Dew	Wind	Wind	Wind	Hi	Hi	Wind	Heat	THW			Rain	Heat	Cool	In 	In	In 	In 	Wind	Wind	ISS 	Arc.
Date		Time	Out	Temp	Temp	Hum	Pt.	Speed	Dir	Run	Speed	Dir	Chill	Index	Index	Bar  	Rain	Rate	D-D 	D-D 	Temp	Hum	Dew	Heat	Samp	Tx 	Recept	Int.
09/12/19	1:00 a	74.6	75.6	74.6	90	71.5	4.0	S	4.00	15.0	SE	74.6	77.6	77.6	30.093	0.00	0.00	0.000	0.400	85.4	37	56.2	85.0	1402	1	100.0	60
09/12/19	2:00 a	73.6	74.6	73.6	93	71.4	5.0	SW	5.00	13.0	SW	73.6	76.3	76.3	30.095	0.00	0.00	0.000	0.358	85.3	37	56.1	84.9	1405	1	100.0	60
09/12/19	3:00 a	73.1	73.6	73.1	95	71.6	5.0	SW	5.00	13.0	WSW	73.1	75.9	75.9	30.052	0.00	0.00	0.000	0.337	83.5	37	54.5	82.9	1406	1	100.0	60
09/12/19	4:00 a	73.3	73.3	73.1	95	71.8	5.0	SW	5.00	14.0	S	73.3	76.2	76.2	30.065	0.00	0.00	0.000	0.346	83.9	38	55.6	83.7	1404	1	100.0	60
09/12/19	5:00 a	72.8	73.3	72.8	95	71.3	5.0	SW	5.00	11.0	SW	72.8	75.6	75.6	30.075	0.00	0.00	0.000	0.325	83.8	38	55.5	83.6	1405	1	100.0	60
09/12/19	6:00 a	72.2	72.9	72.2	96	71.0	5.0	SW	5.00	11.0	SSW	72.2	75.2	75.2	30.074	0.00	0.00	0.000	0.300	82.2	38	54.1	81.3	1405	1	100.0	60
09/12/19	7:00 a	71.8	72.2	71.8	97	70.9	5.0	SW	5.00	12.0	SSW	71.8	74.9	74.9	30.077	0.00	0.00	0.000	0.283	82.8	38	54.6	82.1	1405	1	100.0	60
09/12/19	8:00 a	72.7	72.8	71.8	98	72.1	5.0	SW	5.00	13.0	SW	72.7	76.0	76.0	30.084	0.00	0.00	0.000	0.321	83.0	38	54.8	82.3	1405	1	100.0	60
09/12/19	9:00 a	75.0	75.0	72.7	97	74.1	5.0	SW	5.00	15.0	SW	75.0	78.7	78.7	30.100	0.00	0.00	0.000	0.417	82.8	38	54.6	82.1	1405	1	100.0	60
09/12/19	10:00 a	78.2	78.2	75.0	92	75.7	5.0	SW	5.00	12.0	SSE	78.2	83.5	83.5	30.099	0.00	0.00	0.000	0.550	84.6	38	56.2	84.4	1405	1	100.0	60
09/12/19	11:00 a	81.9	81.9	78.3	84	76.6	3.0	SW	3.00	13.0	SW	81.9	89.8	89.8	30.087	0.00	0.00	0.000	0.704	85.0	39	57.3	84.9	1405	1	100.0	60
09/12/19	12:00 p	84.6	84.6	81.9	77	76.6	6.0	W	6.00	15.0	W	84.6	94.6	94.6	30.080	0.00	0.00	0.000	0.817	86.8	37	57.4	86.5	1405	1	100.0	60
09/12/19	1:00 p	86.8	86.8	84.6	72	76.7	6.0	NNW	6.00	15.0	W	86.8	97.9	97.9	30.071	0.00	0.00	0.000	0.908	89.0	41	62.2	90.4	1405	1	100.0	60
09/12/19	2:00 p	89.0	89.0	86.8	65	75.7	6.0	NNW	6.00	15.0	N	89.0	99.6	99.6	30.059	0.00	0.00	0.000	1.000	89.5	35	58.2	89.1	1405	1	100.0	60
09/12/19	3:00 p	90.1	90.1	89.0	61	74.8	6.0	E	6.00	15.0	NW	90.1	100.7	100.7	30.037	0.00	0.00	0.000	1.046	91.5	42	65.2	94.6	1405	1	100.0	60
09/12/19	4:00 p	90.9	90.9	90.1	56	73.0	6.0	ENE	6.00	14.0	E	90.9	100.0	100.0	30.034	0.00	0.00	0.000	1.079	91.8	35	60.3	92.3	1404	1	100.0	60
09/12/19	5:00 p	91.2	91.2	90.9	56	73.3	5.0	ENE	5.00	13.0	E	91.2	100.7	100.7	30.025	0.00	0.00	0.000	1.092	92.9	39	64.3	95.7	1405	1	100.0	60
09/12/19	6:00 p	91.1	91.3	91.1	58	74.3	4.0	NW	4.00	7.0	NNW	91.1	101.5	101.5	30.020	0.00	0.00	0.000	1.087	92.5	33	59.2	92.8	1406	1	100.0	60
09/12/19	7:00 p	90.2	91.1	90.2	60	74.4	0.0	SE	0.00	5.0	SE	90.2	100.3	100.3	30.032	0.00	0.00	0.000	1.050	92.1	37	62.1	93.5	1404	1	100.0	60
09/12/19	8:00 p	87.3	90.2	87.3	67	75.0	0.0	SE	0.00	5.0	SE	87.3	96.8	96.8	30.033	0.00	0.00	0.000	0.929	91.3	32	57.3	91.0	1405	1	100.0	60
09/12/19	9:00 p	83.9	87.3	83.9	75	75.1	0.0	SE	0.00	5.0	SE	83.9	92.4	92.4	30.056	0.00	0.00	0.000	0.788	89.8	36	59.3	89.9	1405	1	100.0	60
09/12/19	10:00 p	82.0	83.9	82.0	81	75.6	0.0	E	0.00	4.0	E	82.0	89.2	89.2	30.070	0.00	0.00	0.000	0.708	89.1	35	57.9	88.5	1405	1	100.0	60
09/12/19	11:00 p	80.5	82.0	80.5	86	75.9	0.0	E	0.00	5.0	E	80.5	87.0	87.0	30.063	0.00	0.00	0.000	0.646	86.9	35	56.0	86.1	1405	1	100.0	60
09/13/19	12:00 a	79.6	80.5	79.6	91	76.7	4.0	SSE	4.00	7.0	SSW	79.6	86.2	86.2	30.064	0.00	0.00	0.000	0.608	87.5	36	57.3	86.8	1406	1	100.0	60
FRIDAY			Temp	Hi	Low	Out	Dew	Wind	Wind	Wind	Hi	Hi	Wind	Heat	THW			Rain	Heat	Cool	In 	In	In 	In 	Wind	Wind	ISS 	Arc.
Date		Time	Out	Temp	Temp	Hum	Pt.	Speed	Dir	Run	Speed	Dir	Chill	Index	Index	Bar  	Rain	Rate	D-D 	D-D 	Temp	Hum	Dew	Heat	Samp	Tx 	Recept	Int.
09/13/19	1:00 a	79.1	79.6	79.1	94	77.2	4.0	SW	4.00	13.0	WNW	79.1	85.8	85.8	30.089	0.00	0.00	0.000	0.587	84.9	34	53.4	83.9	1403	1	100.0	60
09/13/19	2:00 a	74.0	79.3	74.0	97	73.1	12.0	ENE	12.00	34.0	NE	71.1	77.2	74.3	30.114	0.60	3.81	0.000	0.375	86.0	38	57.4	85.8	1405	1	100.0	60
09/13/19	3:00 a	72.8	74.0	72.7	98	72.2	5.0	SSE	5.00	13.0	E	72.8	76.1	76.1	30.122	0.03	0.20	0.000	0.325	85.1	36	55.1	84.5	1405	1	100.0	60
09/13/19	4:00 a	72.6	72.8	72.6	99	72.3	4.0	NNE	4.00	7.0	N	72.6	76.0	76.0	30.128	0.00	0.00	0.000	0.317	84.2	37	55.1	83.9	1405	1	100.0	60
09/13/19	5:00 a	74.2	74.2	72.6	100	74.2	4.0	NE	4.00	12.0	E	74.2	77.8	77.8	30.144	0.00	0.00	0.000	0.383	84.4	38	56.0	84.2	1404	1	100.0	60
09/13/19	6:00 a	74.5	74.5	74.2	100	74.5	7.0	NE	7.00	16.0	NE	74.5	78.2	78.2	30.160	0.00	0.00	0.000	0.396	83.5	37	54.5	82.9	1405	1	100.0	60
09/13/19	7:00 a	74.2	74.5	74.2	99	73.9	11.0	ENE	11.00	19.0	ENE	71.7	77.7	75.2	30.178	0.00	0.00	0.000	0.383	83.3	38	55.0	82.8	1406	1	100.0	60
09/13/19	8:00 a	74.0	74.2	74.0	98	73.4	12.0	ENE	12.00	20.0	NE	71.1	77.4	74.5	30.202	0.00	0.00	0.000	0.375	84.0	44	59.7	84.9	1404	1	100.0	60
09/13/19	9:00 a	73.8	74.1	73.8	97	72.9	12.0	ENE	12.00	23.0	ENE	70.9	77.0	74.1	30.225	0.00	0.00	0.000	0.367	83.2	47	60.9	84.1	1405	1	100.0	60
09/13/19	10:00 a	74.2	74.2	73.6	94	72.4	12.0	ENE	12.00	24.0	NNE	71.3	77.2	74.3	30.249	0.00	0.00	0.000	0.383	83.3	42	57.8	83.5	1405	1	100.0	60
09/13/19	11:00 a	73.5	74.2	73.4	94	71.7	12.0	ENE	12.00	23.0	E	70.6	76.3	73.4	30.268	0.00	0.00	0.000	0.354	83.7	44	59.5	84.5	1405	1	100.0	60
09/13/19	12:00 p	73.7	73.7	73.2	90	70.6	10.0	ENE	10.00	22.0	ENE	71.7	76.1	74.1	30.278	0.00	0.00	0.000	0.362	84.2	43	59.3	85.0	1405	1	100.0	60
09/13/19	1:00 p	74.3	74.3	73.7	87	70.2	10.0	ENE	10.00	25.0	ENE	72.3	76.8	74.8	30.291	0.00	0.00	0.000	0.388	83.2	42	57.7	83.3	1405	1	100.0	60
09/13/19	2:00 p	74.7	74.8	74.3	85	69.9	10.0	ENE	10.00	22.0	NE	72.7	77.5	75.5	30.294	0.00	0.00	0.000	0.404	83.8	43	58.9	84.5	1405	1	100.0	60
09/13/19	3:00 p	74.7	74.8	74.7	84	69.5	11.0	ENE	11.00	24.0	NNE	72.3	77.4	75.0	30.284	0.00	0.00	0.000	0.404	82.8	39	55.3	82.3	1405	1	100.0	60
09/13/19	4:00 p	74.7	75.0	74.6	83	69.2	10.0	ENE	10.00	20.0	NE	72.7	77.3	75.3	30.281	0.00	0.00	0.000	0.404	83.7	43	58.8	84.3	1405	1	100.0	60
09/13/19	5:00 p	75.4	75.4	74.7	81	69.2	11.0	ENE	11.00	20.0	ENE	73.0	78.1	75.7	30.276	0.00	0.00	0.000	0.433	84.2	40	57.3	84.5	1405	1	100.0	60
09/13/19	6:00 p	75.3	75.5	75.3	82	69.4	12.0	ENE	12.00	23.0	NE	72.5	78.1	75.3	30.278	0.00	0.00	0.000	0.429	83.7	43	58.8	84.3	1405	1	100.0	60
09/13/19	7:00 p	74.2	75.3	74.2	85	69.4	10.0	ENE	10.00	21.0	ENE	72.2	76.6	74.6	30.279	0.00	0.00	0.000	0.383	84.0	44	59.7	84.9	1404	1	100.0	60
09/13/19	8:00 p	73.3	74.2	73.3	84	68.2	7.0	ENE	7.00	18.0	NNE	73.3	75.4	75.4	30.288	0.00	0.00	0.000	0.346	82.9	38	54.7	82.2	1405	1	100.0	60
09/13/19	9:00 p	73.0	73.3	72.9	84	67.9	6.0	ENE	6.00	18.0	ENE	73.0	75.0	75.0	30.302	0.00	0.00	0.000	0.333	83.0	41	56.9	82.9	1405	1	100.0	60
09/13/19	10:00 p	73.1	73.1	73.0	85	68.3	6.0	NE	6.00	18.0	NE	73.1	75.2	75.2	30.298	0.00	0.00	0.000	0.337	82.8	42	57.4	82.7	1405	1	100.0	60
09/13/19	11:00 p	73.0	73.1	73.0	84	67.9	6.0	ENE	6.00	17.0	NE	73.0	75.0	75.0	30.298	0.00	0.00	0.000	0.333	82.8	44	58.7	83.0	1405	1	100.0	60
09/14/19	12:00 a	72.8	73.0	72.8	84	67.7	5.0	NE	5.00	17.0	ENE	72.8	74.8	74.8	30.278	0.00	0.00	0.000	0.325	82.6	44	58.5	82.7	1405	1	100.0	60
SATURDAY		Temp	Hi	Low	Out	Dew	Wind	Wind	Wind	Hi	Hi	Wind	Heat	THW			Rain	Heat	Cool	In 	In	In 	In 	Wind	Wind	ISS 	Arc.
Date		Time	Out	Temp	Temp	Hum	Pt.	Speed	Dir	Run	Speed	Dir	Chill	Index	Index	Bar  	Rain	Rate	D-D 	D-D 	Temp	Hum	Dew	Heat	Samp	Tx 	Recept	Int.
09/14/19	1:00 a	72.5	72.8	72.5	86	68.1	5.0	NE	5.00	11.0	ENE	72.5	74.5	74.5	30.270	0.00	0.00	0.000	0.313	82.6	44	58.5	82.7	1404	1	100.0	60
09/14/19	2:00 a	71.5	72.5	71.5	88	67.8	4.0	ENE	4.00	10.0	ENE	71.5	73.5	73.5	30.256	0.00	0.00	0.000	0.271	82.6	43	57.8	82.6	1405	1	100.0	60
09/14/19	3:00 a	70.2	71.5	70.2	91	67.4	4.0	NE	4.00	6.0	NE	70.2	72.3	72.3	30.243	0.00	0.00	0.000	0.217	82.0	44	57.9	81.8	1405	1	100.0	60
09/14/19	4:00 a	69.3	70.2	69.3	92	66.9	0.0	NE	0.00	6.0	NE	69.3	71.4	71.4	30.243	0.00	0.00	0.000	0.179	81.9	44	57.8	81.7	1405	1	100.0	60
09/14/19	5:00 a	68.3	69.3	68.3	94	66.5	0.0	NE	0.00	5.0	NE	68.3	70.3	70.3	30.241	0.00	0.00	0.000	0.138	81.7	44	57.7	81.4	1405	1	100.0	60
09/14/19	6:00 a	69.4	69.4	68.1	97	68.5	4.0	NE	4.00	9.0	NE	69.4	72.1	72.1	30.241	0.00	0.00	0.000	0.183	81.2	45	57.8	80.9	1405	1	100.0	60
09/14/19	7:00 a	70.4	70.4	69.4	96	69.2	5.0	ENE	5.00	10.0	ENE	70.4	73.2	73.2	30.250	0.00	0.00	0.000	0.225	80.9	45	57.6	80.5	1404	1	100.0	60
09/14/19	8:00 a	72.1	72.1	70.4	95	70.6	5.0	NE	5.00	16.0	ENE	72.1	74.9	74.9	30.260	0.00	0.00	0.000	0.296	80.9	47	58.8	80.7	1405	1	100.0	60
09/14/19	9:00 a	74.8	74.8	72.1	91	72.0	6.0	NE	6.00	16.0	NE	74.8	78.1	78.1	30.271	0.00	0.00	0.000	0.408	82.1	46	59.3	82.2	1405	1	100.0	60
09/14/19	10:00 a	77.4	77.4	74.8	86	72.9	6.0	ENE	6.00	15.0	E	77.4	81.3	81.3	30.269	0.00	0.00	0.000	0.517	83.9	45	60.3	84.9	1405	1	100.0	60
09/14/19	11:00 a	79.5	79.5	77.4	82	73.5	5.0	SE	5.00	14.0	NNE	79.5	84.1	84.1	30.265	0.00	0.00	0.000	0.604	85.3	45	61.6	86.3	1405	1	100.0	60
09/14/19	12:00 p	81.9	81.9	79.5	74	72.8	5.0	NE	5.00	13.0	NNE	81.9	87.1	87.1	30.250	0.00	0.00	0.000	0.704	85.5	42	59.8	86.0	1405	1	100.0	60
09/14/19	1:00 p	81.3	81.9	81.3	78	73.8	5.0	ENE	5.00	14.0	NNE	81.3	86.7	86.7	30.236	0.00	0.00	0.000	0.679	83.9	39	56.3	83.9	1405	1	100.0	60
09/14/19	2:00 p	81.1	81.4	80.9	78	73.6	4.0	NNW	4.00	10.0	NNW	81.1	86.3	86.3	30.212	0.00	0.00	0.000	0.671	85.3	41	58.9	85.6	1405	1	100.0	60
09/14/19	3:00 p	83.0	83.0	81.1	74	73.9	5.0	ENE	5.00	15.0	SSE	83.0	89.8	89.8	30.193	0.00	0.00	0.000	0.750	85.1	39	57.4	85.0	1405	1	100.0	60
09/14/19	4:00 p	85.7	85.7	83.0	70	74.8	10.0	SSE	10.00	18.0	S	84.9	94.6	93.8	30.177	0.00	0.00	0.000	0.862	84.5	38	56.1	84.3	1405	1	100.0	60
09/14/19	5:00 p	85.3	85.9	85.3	71	74.8	7.0	SSE	7.00	18.0	SSE	85.3	94.0	94.0	30.173	0.00	0.00	0.000	0.846	87.6	41	61.0	88.1	1405	1	100.0	60
09/14/19	6:00 p	83.6	85.3	83.6	73	74.0	6.0	SSE	6.00	15.0	SSE	83.6	91.0	91.0	30.166	0.00	0.00	0.000	0.775	88.7	41	62.0	89.8	1405	1	100.0	60
09/14/19	7:00 p	81.4	83.6	81.4	77	73.5	7.0	SSE	7.00	17.0	SE	81.4	86.7	86.7	30.169	0.00	0.00	0.000	0.683	89.1	42	63.0	90.9	1405	1	100.0	60
09/14/19	8:00 p	78.9	81.4	78.9	84	73.7	6.0	SSE	6.00	14.0	SSE	78.9	83.4	83.4	30.169	0.00	0.00	0.000	0.579	85.3	38	56.8	85.1	1405	1	100.0	60
09/14/19	9:00 p	77.0	78.9	76.9	89	73.5	5.0	SSE	5.00	10.0	SE	77.0	80.9	80.9	30.169	0.00	0.00	0.000	0.500	84.9	39	57.2	84.8	1405	1	100.0	60
09/14/19	10:00 p	75.5	77.0	75.5	92	73.0	4.0	SSE	4.00	11.0	S	75.5	79.1	79.1	30.169	0.00	0.00	0.000	0.438	85.2	39	57.4	85.1	1405	1	100.0	60
09/14/19	11:00 p	74.4	75.5	74.4	94	72.6	4.0	SSE	4.00	7.0	SSE	74.4	77.6	77.6	30.168	0.00	0.00	0.000	0.392	83.2	38	55.0	82.7	1404	1	100.0	60
09/15/19	12:00 a	73.4	74.4	73.4	95	71.9	0.0	SSE	0.00	4.0	SSE	73.4	76.3	76.3	30.156	0.00	0.00	0.000	0.350	83.6	39	56.0	83.5	1405	1	100.0	60
SUNDAY 			Temp	Hi	Low	Out	Dew	Wind	Wind	Wind	Hi	Hi	Wind	Heat	THW			Rain	Heat	Cool	In 	In	In 	In 	Wind	Wind	ISS 	Arc.
Date		Time	Out	Temp	Temp	Hum	Pt.	Speed	Dir	Run	Speed	Dir	Chill	Index	Index	Bar  	Rain	Rate	D-D 	D-D 	Temp	Hum	Dew	Heat	Samp	Tx 	Recept	Int.
09/15/19	1:00 a	72.7	73.4	72.7	96	71.5	0.0	SSE	0.00	4.0	SSE	72.7	75.7	75.7	30.154	0.00	0.00	0.000	0.321	83.3	39	55.8	83.0	1403	1	100.0	60
09/15/19	2:00 a	72.3	72.7	72.2	97	71.4	0.0	SSE	0.00	5.0	SSE	72.3	75.4	75.4	30.151	0.00	0.00	0.000	0.304	82.0	39	54.6	81.2	1405	1	100.0	60
09/15/19	3:00 a	71.8	72.2	71.8	97	70.9	0.0	SSE	0.00	5.0	SSE	71.8	74.9	74.9	30.138	0.00	0.00	0.000	0.283	82.1	40	55.4	81.4	1405	1	100.0	60
09/15/19	4:00 a	71.3	71.8	71.3	98	70.7	0.0	SSE	0.00	5.0	SSE	71.3	74.6	74.6	30.130	0.00	0.00	0.000	0.263	81.9	40	55.2	81.2	1405	1	100.0	60
09/15/19	5:00 a	70.8	71.3	70.8	98	70.2	0.0	SSE	0.00	5.0	SSE	70.8	74.1	74.1	30.127	0.00	0.00	0.000	0.242	81.6	40	54.9	80.8	1405	1	100.0	60
09/15/19	6:00 a	70.5	70.8	70.5	98	69.9	0.0	SSE	0.00	6.0	SSE	70.5	73.7	73.7	30.130	0.00	0.00	0.000	0.229	80.8	39	53.5	79.7	1405	1	100.0	60
09/15/19	7:00 a	70.1	70.5	70.1	98	69.5	0.0	SSE	0.00	4.0	SSE	70.1	73.2	73.2	30.135	0.00	0.00	0.000	0.212	81.2	39	53.9	80.2	1405	1	100.0	60
09/15/19	8:00 a	70.7	70.7	70.0	99	70.4	0.0	SSE	0.00	5.0	WNW	70.7	74.1	74.1	30.145	0.00	0.00	0.000	0.237	81.4	40	54.8	80.5	1405	1	100.0	60
09/15/19	9:00 a	74.5	74.5	70.7	100	74.5	5.0	SSE	5.00	13.0	S	74.5	78.2	78.2	30.151	0.00	0.00	0.000	0.396	79.9	38	52.0	78.7	1405	1	100.0	60
09/15/19	10:00 a	77.2	77.2	74.5	95	75.7	5.0	SSE	5.00	13.0	SSE	77.2	81.9	81.9	30.145	0.00	0.00	0.000	0.508	82.8	39	55.3	82.3	1404	1	100.0	60
09/15/19	11:00 a	80.7	80.7	77.2	85	75.8	5.0	S	5.00	12.0	S	80.7	87.1	87.1	30.127	0.00	0.00	0.000	0.654	85.1	38	56.6	84.8	1405	1	100.0	60
09/15/19	12:00 p	83.1	83.1	80.7	76	74.7	5.0	NE	5.00	12.0	SSE	83.1	90.7	90.7	30.117	0.00	0.00	0.000	0.754	86.4	39	58.5	86.5	1405	1	100.0	60
09/15/19	1:00 p	84.4	84.7	83.1	74	75.2	5.0	ENE	5.00	14.0	NE	84.4	93.1	93.1	30.114	0.00	0.00	0.000	0.808	87.1	37	57.7	86.7	1406	1	100.0	60
09/15/19	2:00 p	82.7	84.4	82.7	71	72.3	6.0	NE	6.00	14.0	NW	82.7	88.1	88.1	30.102	0.00	0.00	0.000	0.737	87.4	40	60.1	87.7	1404	1	100.0	60
09/15/19	3:00 p	83.9	84.0	82.7	69	72.6	6.0	ENE	6.00	15.0	NE	83.9	90.3	90.3	30.078	0.00	0.00	0.000	0.788	87.1	37	57.7	86.7	1405	1	100.0	60
09/15/19	4:00 p	84.7	84.8	83.9	65	71.6	6.0	SSE	6.00	14.0	SSE	84.7	90.5	90.5	30.066	0.00	0.00	0.000	0.821	89.1	39	60.9	89.8	1405	1	100.0	60
09/15/19	5:00 p	84.8	84.8	84.7	60	69.4	6.0	SSE	6.00	17.0	SSE	84.8	89.1	89.1	30.050	0.00	0.00	0.000	0.825	89.1	35	57.9	88.5	1405	1	100.0	60
09/15/19	6:00 p	84.7	85.0	84.7	68	73.0	6.0	ENE	6.00	14.0	ENE	84.7	91.6	91.6	30.058	0.00	0.00	0.000	0.821	89.8	37	60.1	90.1	1405	1	100.0	60
09/15/19	7:00 p	81.2	84.7	81.2	80	74.4	7.0	NE	7.00	16.0	NNE	81.2	87.0	87.0	30.062	0.00	0.00	0.000	0.675	90.2	39	61.9	91.3	1405	1	100.0	60
09/15/19	8:00 p	79.3	81.2	79.3	83	73.7	6.0	ENE	6.00	14.0	ENE	79.3	83.9	83.9	30.067	0.00	0.00	0.000	0.596	86.4	36	56.3	85.9	1405	1	100.0	60
09/15/19	9:00 p	78.0	79.3	78.0	86	73.5	4.0	ENE	4.00	17.0	NE	78.0	82.2	82.2	30.075	0.00	0.00	0.000	0.542	85.3	37	56.1	84.9	1405	1	100.0	60
09/15/19	10:00 p	76.4	78.0	76.4	90	73.2	4.0	E	4.00	7.0	SE	76.4	80.1	80.1	30.083	0.00	0.00	0.000	0.475	84.4	35	53.8	83.7	1405	1	100.0	60
09/15/19	11:00 p	75.1	76.4	75.1	92	72.6	0.0	E	0.00	5.0	E	75.1	78.6	78.6	30.071	0.00	0.00	0.000	0.421	84.0	37	54.9	83.7	1405	1	100.0	60
09/16/19	12:00 a	73.8	75.0	73.8	94	72.0	0.0	E	0.00	5.0	E	73.8	76.7	76.7	30.071	0.00	0.00	0.000	0.367	84.2	37	55.1	83.9	1405	1	100.0	60
MONDAY			Temp	Hi	Low	Out	Dew	Wind	Wind	Wind	Hi	Hi	Wind	Heat	THW			Rain	Heat	Cool	In 	In	In 	In 	Wind	Wind	ISS 	Arc.
Date		Time	Out	Temp	Temp	Hum	Pt.	Speed	Dir	Run	Speed	Dir	Chill	Index	Index	Bar  	Rain	Rate	D-D 	D-D 	Temp	Hum	Dew	Heat	Samp	Tx 	Recept	Int.
09/16/19	1:00 a	72.8	73.8	72.8	95	71.3	0.0	E	0.00	5.0	E	72.8	75.6	75.6	30.065	0.00	0.00	0.000	0.325	82.5	36	52.9	81.4	1404	1	100.0	60
09/16/19	2:00 a	71.9	72.8	71.9	96	70.7	0.0	E	0.00	5.0	E	71.9	74.9	74.9	30.060	0.00	0.00	0.000	0.288	82.6	37	53.7	81.7	1404	1	100.0	60
09/16/19	3:00 a	71.1	71.9	71.1	96	69.9	0.0	E	0.00	5.0	E	71.1	74.0	74.0	30.040	0.00	0.00	0.000	0.254	82.5	38	54.3	81.7	1405	1	100.0	60
09/16/19	4:00 a	70.4	71.1	70.4	97	69.5	0.0	E	0.00	5.0	E	70.4	73.4	73.4	30.033	0.00	0.00	0.000	0.225	82.2	39	54.8	81.4	1405	1	100.0	60
09/16/19	5:00 a	70.2	70.4	70.2	98	69.6	0.0	E	0.00	5.0	E	70.2	73.3	73.3	30.031	0.00	0.00	0.000	0.217	81.9	39	54.5	81.1	1405	1	100.0	60
09/16/19	6:00 a	69.7	70.3	69.7	98	69.1	0.0	E	0.00	5.0	E	69.7	72.7	72.7	30.040	0.00	0.00	0.000	0.196	81.7	40	55.0	80.9	1405	1	100.0	60
09/16/19	7:00 a	69.6	69.7	69.6	98	69.0	0.0	NE	0.00	5.0	ENE	69.6	72.5	72.5	30.039	0.00	0.00	0.000	0.192	80.6	39	53.4	79.5	1405	1	100.0	60
09/16/19	8:00 a	70.1	70.1	69.5	99	69.8	0.0	NE	0.00	5.0	NE	70.1	73.4	73.4	30.050	0.00	0.00	0.000	0.212	81.2	39	53.9	80.2	1405	1	100.0	60
09/16/19	9:00 a	73.7	73.7	70.1	100	73.7	4.0	NNW	4.00	13.0	NNW	73.7	77.3	77.3	30.059	0.00	0.00	0.000	0.362	81.9	39	54.5	81.1	1405	1	100.0	60
09/16/19	10:00 a	77.4	77.5	73.7	94	75.5	6.0	NNW	6.00	14.0	NW	77.4	82.2	82.2	30.060	0.00	0.00	0.000	0.517	81.5	37	52.7	80.3	1405	1	100.0	60
09/16/19	11:00 a	79.5	79.5	77.5	87	75.3	7.0	NNW	7.00	16.0	N	79.5	85.1	85.1	30.054	0.00	0.00	0.000	0.604	83.4	39	55.8	83.2	1405	1	100.0	60
09/16/19	12:00 p	80.6	80.6	79.5	78	73.1	7.0	NE	7.00	15.0	NW	80.6	85.3	85.3	30.044	0.00	0.00	0.000	0.650	84.3	37	55.2	84.0	1405	1	100.0	60
09/16/19	1:00 p	82.2	82.2	80.6	70	71.4	7.0	ENE	7.00	16.0	NE	82.2	86.7	86.7	30.027	0.00	0.00	0.000	0.717	85.7	41	59.3	86.0	1404	1	100.0	60
09/16/19	2:00 p	83.7	83.7	82.2	68	72.0	6.0	ENE	6.00	16.0	NE	83.7	89.5	89.5	30.005	0.00	0.00	0.000	0.779	87.1	36	56.9	86.5	1405	1	100.0	60
09/16/19	3:00 p	83.8	83.8	83.2	66	71.2	6.0	NE	6.00	16.0	ENE	83.8	89.1	89.1	29.985	0.00	0.00	0.000	0.783	88.1	41	61.4	88.6	1405	1	100.0	60
09/16/19	4:00 p	84.2	84.2	83.8	67	72.0	6.0	ENE	6.00	15.0	ENE	84.2	90.3	90.3	29.956	0.00	0.00	0.000	0.800	89.7	34	57.6	89.2	1405	1	100.0	60
09/16/19	5:00 p	84.3	84.3	84.1	62	69.9	5.0	ENE	5.00	15.0	ENE	84.3	88.8	88.8	29.944	0.00	0.00	0.000	0.804	89.9	39	61.6	90.8	1405	1	100.0	60
09/16/19	6:00 p	83.7	84.3	83.7	65	70.7	5.0	NE	5.00	13.0	E	83.7	88.5	88.5	29.946	0.00	0.00	0.000	0.779	91.1	33	58.0	90.9	1405	1	100.0	60
09/16/19	7:00 p	82.2	83.7	82.2	69	71.0	5.0	SSE	5.00	11.0	S	82.2	86.5	86.5	29.952	0.00	0.00	0.000	0.717	89.6	35	58.3	89.3	1405	1	100.0	60
09/16/19	8:00 p	79.3	82.1	79.3	76	71.1	5.0	SSE	5.00	10.0	SSE	79.3	82.6	82.6	29.960	0.00	0.00	0.000	0.596	89.3	37	59.6	89.4	1405	1	100.0	60
09/16/19	9:00 p	76.4	79.3	76.4	84	71.2	0.0	SSE	0.00	6.0	SSE	76.4	79.7	79.7	29.966	0.00	0.00	0.000	0.475	86.5	35	55.6	85.8	1405	1	100.0	60
09/16/19	10:00 p	74.2	76.4	74.2	90	71.1	4.0	SSE	4.00	10.0	SSE	74.2	76.8	76.8	29.970	0.00	0.00	0.000	0.383	86.3	36	56.2	85.8	1405	1	100.0	60
09/16/19	11:00 p	72.8	74.2	72.7	92	70.3	0.0	SSE	0.00	5.0	SSE	72.8	75.4	75.4	29.962	0.00	0.00	0.000	0.325	85.1	35	54.4	84.3	1405	1	100.0	60
09/17/19	12:00 a	71.5	72.7	71.5	94	69.7	0.0	SSE	0.00	5.0	SSE	71.5	74.1	74.1	29.954	0.00	0.00	0.000	0.271	84.3	36	54.4	83.8	1405	1	100.0	60
TUESDAY			Temp	Hi	Low	Out	Dew	Wind	Wind	Wind	Hi	Hi	Wind	Heat	THW			Rain	Heat	Cool	In 	In	In 	In 	Wind	Wind	ISS 	Arc.
Date		Time	Out	Temp	Temp	Hum	Pt.	Speed	Dir	Run	Speed	Dir	Chill	Index	Index	Bar  	Rain	Rate	D-D 	D-D 	Temp	Hum	Dew	Heat	Samp	Tx 	Recept	Int.
09/17/19	1:00 a	70.6	71.5	70.6	95	69.1	0.0	SSE	0.00	4.0	SSE	70.6	73.2	73.2	29.952	0.00	0.00	0.000	0.233	84.1	37	55.0	83.8	1404	1	100.0	60
09/17/19	2:00 a	69.8	70.6	69.8	96	68.6	0.0	SSE	0.00	5.0	SSE	69.8	72.4	72.4	29.954	0.00	0.00	0.000	0.200	83.9	38	55.6	83.7	1404	1	100.0	60
09/17/19	3:00 a	69.4	69.9	69.4	97	68.5	0.0	SSE	0.00	5.0	SSE	69.4	72.1	72.1	29.940	0.00	0.00	0.000	0.183	82.1	36	52.5	80.9	1405	1	100.0	60
09/17/19	4:00 a	69.2	69.4	69.2	98	68.6	0.0	SSE	0.00	4.0	SSE	69.2	71.9	71.9	29.937	0.00	0.00	0.000	0.175	82.0	37	53.2	80.9	1405	1	100.0	60
09/17/19	5:00 a	69.0	69.2	69.0	98	68.4	0.0	SSE	0.00	5.0	SSE	69.0	71.7	71.7	29.932	0.00	0.00	0.000	0.167	81.9	38	53.8	80.9	1405	1	100.0	60
09/17/19	6:00 a	68.9	69.1	68.9	98	68.3	0.0	SSE	0.00	4.0	SSE	68.9	71.5	71.5	29.951	0.00	0.00	0.000	0.163	82.5	38	54.3	81.7	1405	1	100.0	60
09/17/19	7:00 a	71.1	71.1	68.9	100	71.1	4.0	NE	4.00	10.0	NE	71.1	74.8	74.8	29.967	0.00	0.00	0.000	0.254	82.4	38	54.2	81.6	1405	1	100.0	60
09/17/19	8:00 a	72.9	72.9	71.1	98	72.3	5.0	NE	5.00	13.0	E	72.9	76.2	76.2	29.985	0.00	0.00	0.000	0.329	81.3	37	52.5	80.1	1405	1	100.0	60
09/17/19	9:00 a	75.9	75.9	72.9	85	71.1	10.0	NE	10.00	23.0	N	74.0	79.1	77.2	29.995	0.00	0.00	0.000	0.454	82.2	38	54.1	81.3	1405	1	100.0	60
09/17/19	10:00 a	78.0	78.0	75.9	77	70.2	12.0	ENE	12.00	23.0	N	75.5	80.9	78.4	30.005	0.00	0.00	0.000	0.542	82.6	36	52.9	81.5	1405	1	100.0	60
09/17/19	11:00 a	79.1	79.1	78.0	73	69.7	10.0	ENE	10.00	22.0	NE	77.4	81.9	80.2	30.018	0.00	0.00	0.000	0.587	84.4	39	56.7	84.4	1405	1	100.0	60
09/17/19	12:00 p	80.1	80.1	79.1	76	71.8	7.0	ENE	7.00	18.0	NE	80.1	84.0	84.0	30.011	0.00	0.00	0.000	0.629	84.4	35	53.8	83.7	1405	1	100.0	60
09/17/19	1:00 p	79.2	80.1	78.2	73	69.8	12.0	ENE	12.00	24.0	E	76.8	82.0	79.6	30.016	0.00	0.00	0.000	0.592	86.4	42	60.6	87.1	1405	1	100.0	60
09/17/19	2:00 p	78.3	79.2	78.1	73	68.9	12.0	ENE	12.00	24.0	NE	75.8	80.8	78.3	30.018	0.00	0.00	0.000	0.554	85.7	40	58.6	85.9	1405	1	100.0	60
09/17/19	3:00 p	77.6	78.3	77.6	75	69.0	14.0	ENE	14.00	23.0	NNE	74.5	80.2	77.1	30.014	0.00	0.00	0.000	0.525	85.3	34	53.8	84.3	1405	1	100.0	60
09/17/19	4:00 p	76.6	77.6	76.6	74	67.7	13.0	ENE	13.00	24.0	ENE	73.6	78.9	75.9	30.009	0.00	0.00	0.000	0.483	86.0	40	58.9	86.2	1404	1	100.0	60
09/17/19	5:00 p	76.0	76.6	76.0	74	67.1	13.0	ENE	13.00	30.0	E	72.9	78.3	75.2	30.016	0.00	0.00	0.000	0.458	84.8	37	55.6	84.4	1405	1	100.0	60
09/17/19	6:00 p	74.7	76.0	74.7	76	66.6	12.0	ENE	12.00	25.0	ENE	71.9	76.8	74.0	30.026	0.00	0.00	0.000	0.404	85.5	39	57.7	85.5	1405	1	100.0	60
09/17/19	7:00 p	74.0	74.7	74.0	74	65.2	12.0	ENE	12.00	23.0	E	71.1	75.8	72.9	30.042	0.00	0.00	0.000	0.375	85.2	38	56.7	85.0	1405	1	100.0	60
09/17/19	8:00 p	72.5	74.0	72.5	76	64.5	12.0	NE	12.00	23.0	N	69.5	73.8	70.8	30.041	0.00	0.00	0.000	0.313	84.0	42	58.4	84.6	1405	1	100.0	60
09/17/19	9:00 p	71.4	72.5	71.4	74	62.7	11.0	NE	11.00	21.0	NE	68.8	72.2	69.6	30.058	0.00	0.00	0.000	0.267	83.6	41	57.4	83.8	1405	1	100.0	60
09/17/19	10:00 p	70.8	71.4	70.8	69	60.1	10.0	NE	10.00	19.0	NNW	68.7	71.0	68.9	30.056	0.00	0.00	0.000	0.242	82.1	40	55.4	81.4	1405	1	100.0	60
09/17/19	11:00 p	70.3	70.8	70.3	72	60.8	7.0	NE	7.00	17.0	NE	70.3	70.7	70.7	30.059	0.00	0.00	0.000	0.221	82.0	41	56.0	81.4	1405	1	100.0	60
09/18/19	12:00 a	69.4	70.3	69.4	73	60.4	5.0	ENE	5.00	19.0	ENE	69.4	70.0	70.0	30.058	0.00	0.00	0.000	0.183	81.1	42	55.8	80.4	1405	1	100.0	60
WEDNESDAY		Temp	Hi	Low	Out	Dew	Wind	Wind	Wind	Hi	Hi	Wind	Heat	THW			Rain	Heat	Cool	In 	In	In 	In 	Wind	Wind	ISS 	Arc.
Date	 	Time	Out	Temp	Temp	Hum	Pt.	Speed	Dir	Run	Speed	Dir	Chill	Index	Index	Bar  	Rain	Rate	D-D 	D-D 	Temp	Hum	Dew	Heat	Samp	Tx 	Recept	Int.
09/18/19	1:00 a	68.7	69.4	68.6	70	58.5	5.0	NE	5.00	15.0	NNE	68.7	69.2	69.2	30.051	0.00	0.00	0.000	0.154	80.7	42	55.5	79.9	1404	1	100.0	60
09/18/19	2:00 a	68.1	68.7	68.1	71	58.3	5.0	ENE	5.00	15.0	ENE	68.1	68.7	68.7	30.058	0.00	0.00	0.000	0.129	80.3	43	55.8	79.7	1405	1	100.0	60
09/18/19	3:00 a	67.3	68.1	67.3	71	57.6	4.0	NE	4.00	13.0	NE	67.3	67.8	67.8	30.060	0.00	0.00	0.000	0.096	80.0	43	55.5	79.4	1405	1	100.0	60
09/18/19	4:00 a	68.2	68.2	67.1	68	57.2	6.0	NE	6.00	15.0	NNE	68.2	68.6	68.6	30.061	0.00	0.00	0.000	0.133	79.5	43	55.0	78.9	1404	1	100.0	60
09/18/19	5:00 a	68.6	68.7	68.2	70	58.4	7.0	NE	7.00	16.0	NNE	68.6	69.1	69.1	30.066	0.00	0.00	0.000	0.150	79.3	43	54.9	78.8	1405	1	100.0	60
09/18/19	6:00 a	68.4	68.6	68.3	70	58.2	10.0	NE	10.00	17.0	NE	66.3	68.9	66.8	30.079	0.00	0.00	0.000	0.142	79.1	43	54.7	78.6	1405	1	100.0	60
09/18/19	7:00 a	68.6	68.7	68.4	68	57.6	11.0	NE	11.00	23.0	ENE	66.0	68.9	66.3	30.091	0.00	0.00	0.000	0.150	79.4	43	55.0	78.8	1406	1	100.0	60
09/18/19	8:00 a	69.3	69.3	68.5	65	57.0	11.0	NE	11.00	22.0	NNE	66.7	69.1	66.5	30.104	0.00	0.00	0.000	0.179	79.3	43	54.9	78.8	1404	1	100.0	60
09/18/19	9:00 a	70.8	70.8	69.3	62	57.1	13.0	NE	13.00	24.0	NNE	67.3	70.4	66.9	30.117	0.00	0.00	0.000	0.242	79.8	43	55.3	79.2	1405	1	100.0	60
09/18/19	10:00 a	71.0	71.3	70.8	65	58.6	13.0	NE	13.00	23.0	ENE	67.5	70.9	67.4	30.126	0.00	0.00	0.000	0.250	80.5	42	55.3	79.7	1405	1	100.0	60
09/18/19	11:00 a	72.5	72.7	70.9	58	56.9	14.0	NE	14.00	29.0	ENE	68.8	72.5	68.8	30.133	0.00	0.00	0.000	0.313	80.3	40	53.8	79.3	1405	1	100.0	60
09/18/19	12:00 p	73.3	73.6	72.5	57	57.1	14.0	NE	14.00	29.0	NE	69.6	73.5	69.8	30.132	0.00	0.00	0.000	0.346	82.5	41	56.4	82.1	1405	1	100.0	60
09/18/19	1:00 p	73.6	74.0	73.2	58	57.9	16.0	NE	16.00	29.0	NE	69.4	74.0	69.8	30.129	0.00	0.00	0.000	0.358	83.7	41	57.5	84.0	1405	1	100.0	60
09/18/19	2:00 p	73.7	73.8	73.3	58	58.0	15.0	ENE	15.00	28.0	NE	69.8	74.1	70.2	30.135	0.00	0.00	0.000	0.362	84.8	41	58.5	85.1	1405	1	100.0	60
09/18/19	3:00 p	72.9	73.7	72.8	62	59.1	14.0	NE	14.00	25.0	E	69.2	73.4	69.7	30.132	0.00	0.00	0.000	0.329	85.5	41	59.1	85.8	1405	1	100.0	60
09/18/19	4:00 p	71.7	72.9	71.7	64	58.9	14.0	NE	14.00	26.0	ENE	67.9	71.8	68.0	30.133	0.00	0.00	0.000	0.279	85.9	41	59.5	86.3	1405	1	100.0	60
09/18/19	5:00 p	71.7	71.8	71.4	62	58.0	15.0	NE	15.00	25.0	ENE	67.6	71.6	67.5	30.138	0.00	0.00	0.000	0.279	85.8	37	56.5	85.4	1405	1	100.0	60
09/18/19	6:00 p	70.8	71.7	70.8	64	58.0	14.0	NE	14.00	26.0	ENE	67.0	70.6	66.8	30.145	0.00	0.00	0.000	0.242	84.1	38	55.7	84.0	1405	1	100.0	60
09/18/19	7:00 p	69.9	70.8	69.9	67	58.4	12.0	NE	12.00	24.0	ENE	66.8	69.8	66.7	30.161	0.00	0.00	0.000	0.204	84.1	39	56.5	84.2	1404	1	100.0	60
09/18/19	8:00 p	69.2	69.9	69.2	65	56.9	12.0	ENE	12.00	24.0	NE	66.1	69.1	66.0	30.167	0.00	0.00	0.000	0.175	83.5	39	55.9	83.3	1405	1	100.0	60
09/18/19	9:00 p	68.8	69.2	68.8	69	58.2	12.0	NE	12.00	24.0	NNE	65.7	69.1	66.0	30.177	0.00	0.00	0.000	0.158	82.8	39	55.3	82.3	1405	1	100.0	60
09/18/19	10:00 p	68.1	68.8	68.1	69	57.5	11.0	ENE	11.00	26.0	ENE	65.5	68.6	66.0	30.189	0.00	0.00	0.000	0.129	81.3	38	53.3	80.2	1405	1	100.0	60
09/18/19	11:00 p	67.5	68.1	67.5	69	57.0	12.0	ENE	12.00	24.0	NNE	64.4	67.9	64.8	30.191	0.00	0.00	0.000	0.104	80.9	39	53.6	79.8	1405	1	100.0	60
09/19/19	12:00 a	66.7	67.5	66.7	68	55.8	11.0	ENE	11.00	20.0	ENE	64.1	66.9	64.3	30.192	0.00	0.00	0.000	0.071	80.5	39	53.3	79.4	1405	1	100.0	60
THURSDAY		Temp	Hi	Low	Out	Dew	Wind	Wind	Wind	Hi	Hi	Wind	Heat	THW			Rain	Heat	Cool	In 	In	In 	In 	Wind	Wind	ISS 	Arc.
Date		Time	Out	Temp	Temp	Hum	Pt.	Speed	Dir	Run	Speed	Dir	Chill	Index	Index	Bar  	Rain	Rate	D-D 	D-D 	Temp	Hum	Dew	Heat	Samp	Tx 	Recept	Int.
09/19/19	1:00 a	66.1	66.8	66.1	69	55.6	10.0	NE	10.00	18.0	ENE	64.1	66.2	64.2	30.186	0.00	0.00	0.000	0.046	80.3	40	53.8	79.3	1404	1	100.0	60
09/19/19	2:00 a	65.8	66.1	65.7	68	54.9	7.0	NE	7.00	20.0	NNE	65.8	65.8	65.8	30.187	0.00	0.00	0.000	0.033	80.0	40	53.5	79.0	1405	1	100.0	60
09/19/19	3:00 a	65.9	65.9	65.8	62	52.5	12.0	NE	12.00	23.0	ENE	62.5	65.4	62.0	30.187	0.00	0.00	0.000	0.038	79.6	40	53.1	78.7	1405	1	100.0	60
09/19/19	4:00 a	65.9	65.9	65.6	65	53.8	11.0	NE	11.00	21.0	ENE	63.2	65.7	63.0	30.186	0.00	0.00	0.000	0.038	79.2	40	52.8	78.4	1405	1	100.0	60
09/19/19	5:00 a	65.8	66.3	65.8	67	54.5	11.0	NE	11.00	23.0	NE	63.1	65.7	63.0	30.198	0.00	0.00	0.000	0.033	78.9	41	53.2	78.2	1405	1	100.0	60
09/19/19	6:00 a	64.9	65.8	64.9	68	54.1	10.0	NE	10.00	19.0	NE	62.7	64.8	62.6	30.211	0.00	0.00	0.004	0.000	78.5	41	52.8	77.7	1405	1	100.0	60
09/19/19	7:00 a	65.2	65.3	64.9	71	55.6	10.0	NE	10.00	24.0	NE	63.0	65.3	63.1	30.228	0.00	0.00	0.000	0.008	78.3	42	53.3	77.6	1404	1	100.0	60
09/19/19	8:00 a	65.3	65.3	65.1	72	56.0	11.0	NE	11.00	22.0	NNE	62.5	65.5	62.7	30.242	0.00	0.00	0.000	0.013	78.5	42	53.5	77.8	1405	1	100.0	60
09/19/19	9:00 a	66.2	66.2	65.3	71	56.5	11.0	NE	11.00	20.0	ENE	63.5	66.5	63.8	30.249	0.00	0.00	0.000	0.050	78.8	42	53.8	78.2	1406	1	100.0	60
09/19/19	10:00 a	67.6	67.6	66.2	64	55.0	12.0	NE	12.00	23.0	NE	64.5	67.6	64.5	30.259	0.00	0.00	0.000	0.108	79.1	42	54.0	78.5	1404	1	100.0	60
09/19/19	11:00 a	68.1	68.3	67.6	64	55.5	11.0	ENE	11.00	21.0	E	65.5	68.2	65.6	30.274	0.00	0.00	0.000	0.129	79.6	42	54.5	78.9	1405	1	100.0	60
09/19/19	12:00 p	68.5	68.8	68.1	66	56.7	11.0	NE	11.00	21.0	ENE	65.9	68.6	66.0	30.283	0.00	0.00	0.000	0.146	79.8	42	54.7	79.1	1405	1	100.0	60
09/19/19	1:00 p	68.6	68.6	67.8	65	56.4	11.0	NE	11.00	24.0	NE	66.0	68.6	66.0	30.274	0.00	0.00	0.000	0.150	80.2	42	55.0	79.4	1405	1	100.0	60
09/19/19	2:00 p	70.3	70.3	68.6	58	54.8	12.0	NE	12.00	22.0	ENE	67.2	69.4	66.3	30.268	0.00	0.00	0.000	0.221	80.6	40	54.0	79.6	1405	1	100.0	60
09/19/19	3:00 p	70.8	70.8	70.1	62	57.1	11.0	NE	11.00	22.0	ENE	68.2	70.4	67.8	30.261	0.00	0.00	0.000	0.242	81.9	41	55.9	81.3	1405	1	100.0	60
09/19/19	4:00 p	69.9	70.8	69.8	66	58.0	11.0	NE	11.00	21.0	NNW	67.3	69.7	67.1	30.252	0.00	0.00	0.000	0.204	82.8	41	56.7	82.6	1405	1	100.0	60
09/19/19	5:00 p	69.6	70.2	69.4	63	56.4	11.0	NE	11.00	23.0	NE	67.0	69.2	66.6	30.258	0.00	0.00	0.000	0.192	83.0	37	54.0	82.2	1405	1	100.0	60
09/19/19	6:00 p	68.7	69.6	68.6	66	56.9	7.0	NE	7.00	19.0	NE	68.7	68.8	68.8	30.260	0.00	0.00	0.000	0.154	82.4	39	55.0	81.7	1405	1	100.0	60
09/19/19	7:00 p	67.9	69.0	67.9	66	56.1	6.0	NE	6.00	15.0	NE	67.9	68.2	68.2	30.255	0.00	0.00	0.000	0.121	82.5	39	55.0	81.9	1405	1	100.0	60
09/19/19	8:00 p	66.4	67.9	66.4	69	55.9	5.0	NE	5.00	15.0	ENE	66.4	66.6	66.6	30.261	0.00	0.00	0.000	0.058	81.9	40	55.2	81.2	1405	1	100.0	60
09/19/19	9:00 p	64.4	66.4	64.4	74	55.9	0.0	NE	0.00	10.0	ENE	64.4	64.5	64.5	30.284	0.00	0.00	0.025	0.000	81.2	40	54.6	80.3	1404	1	100.0	60
09/19/19	10:00 p	61.9	64.4	61.9	80	55.7	0.0	NE	0.00	5.0	NE	61.9	62.1	62.1	30.277	0.00	0.00	0.129	0.000	80.4	40	53.9	79.4	1405	1	100.0	60
09/19/19	11:00 p	59.6	61.9	59.6	84	54.8	0.0	NE	0.00	4.0	NE	59.6	59.6	59.6	30.271	0.00	0.00	0.225	0.000	79.8	40	53.3	78.8	1405	1	100.0	60
09/20/19	12:00 a	57.6	59.6	57.6	87	53.8	0.0	NE	0.00	5.0	NE	57.6	57.6	57.6	30.264	0.00	0.00	0.308	0.000	79.2	41	53.5	78.5	1405	1	100.0	60
FRIDAY			Temp	Hi	Low	Out	Dew	Wind	Wind	Wind	Hi	Hi	Wind	Heat	THW			Rain	Heat	Cool	In 	In	In 	In 	Wind	Wind	ISS 	Arc.
Date		Time	Out	Temp	Temp	Hum	Pt.	Speed	Dir	Run	Speed	Dir	Chill	Index	Index	Bar  	Rain	Rate	D-D 	D-D 	Temp	Hum	Dew	Heat	Samp	Tx 	Recept	Int.
09/20/19	1:00 a	56.0	57.6	56.0	90	53.1	0.0	NE	0.00	5.0	NE	56.0	56.1	56.1	30.271	0.00	0.00	0.375	0.000	78.5	41	52.8	77.7	1404	1	100.0	60
09/20/19	2:00 a	54.8	56.0	54.8	92	52.5	0.0	NE	0.00	4.0	NE	54.8	54.9	54.9	30.265	0.00	0.00	0.425	0.000	77.9	41	52.3	77.1	1405	1	100.0	60
09/20/19	3:00 a	53.7	54.8	53.7	93	51.7	0.0	NE	0.00	5.0	NE	53.7	53.9	53.9	30.256	0.00	0.00	0.471	0.000	77.2	42	52.3	76.5	1405	1	100.0	60
09/20/19	4:00 a	52.8	53.7	52.7	94	51.1	0.0	NE	0.00	4.0	NE	52.8	53.1	53.1	30.261	0.00	0.00	0.508	0.000	76.6	42	51.8	75.9	1405	1	100.0	60
09/20/19	5:00 a	52.1	52.8	52.1	95	50.7	0.0	NE	0.00	5.0	NE	52.1	52.4	52.4	30.276	0.00	0.00	0.538	0.000	76.1	42	51.3	75.4	1405	1	100.0	60
09/20/19	6:00 a	51.6	52.1	51.6	95	50.2	0.0	NE	0.00	4.0	NE	51.6	51.9	51.9	30.287	0.00	0.00	0.558	0.000	75.8	42	51.1	75.1	1405	1	100.0	60

			Temp	Hi	Low	Out	Dew	Wind	Wind	Wind	Hi	Hi	Wind	Heat	THW			Rain	Heat	Cool	In 	In	In 	In 	Wind	Wind	ISS 	Arc.
Date		Time	Out	Temp	Temp	Hum	Pt.	Speed	Dir	Run	Speed	Dir	Chill	Index	Index	Bar  	Rain	Rate	D-D 	D-D 	Temp	Hum	Dew	Heat	Samp	Tx 	Recept	Int.
-----------------------------------------------------------------------------------------------------------------------------------------------------------------------------------